Time,TemperatureF,DewpointF,PressureIn,WindDirection,WindDirectionDegrees,WindSpeedMPH,WindSpeedGustMPH,Humidity,HourlyPrecipIn,Conditions,Clouds,dailyrainin,SoftwareType,DateUTC
2013-07-11 00:00:00,52.9,52.3,29.65,WSW,248,10.1,10.1,98,0.00,,,0.00,VWS V14.01,2013-07-11 07:00:00,
2013-07-11 00:01:00,52.9,52.3,29.65,WSW,248,11.0,11.0,98,0.00,,,0.00,VWS V14.01,2013-07-11 07:01:00,
2013-07-11 00:02:00,52.9,52.3,29.65,WSW,248,11.0,11.0,98,0.00,,,0.00,VWS V14.01,2013-07-11 07:02:00,
2013-07-11 00:04:00,52.9,52.3,29.65,WSW,248,7.6,7.6,98,0.00,,,0.00,VWS V14.01,2013-07-11 07:04:00,
2013-07-11 00:05:00,53.1,52.5,29.65,WSW,248,16.8,16.8,98,0.00,,,0.00,VWS V14.01,2013-07-11 07:05:00,
2013-07-11 00:06:00,53.1,52.5,29.65,WNW,292,12.1,12.1,98,0.00,,,0.00,VWS V14.01,2013-07-11 07:06:00,
2013-07-11 00:07:00,53.1,52.5,29.65,WSW,248,10.3,10.3,98,0.00,,,0.00,VWS V14.01,2013-07-11 07:07:00,
2013-07-11 00:08:00,53.1,52.5,29.65,West,270,10.7,10.7,98,0.00,,,0.00,VWS V14.01,2013-07-11 07:08:00,
2013-07-11 00:09:00,53.1,52.5,29.65,WSW,248,10.7,10.7,98,0.00,,,0.00,VWS V14.01,2013-07-11 07:09:00,
2013-07-11 00:10:00,53.1,52.5,29.65,West,270,10.1,10.1,98,0.00,,,0.00,VWS V14.01,2013-07-11 07:10:00,
2013-07-11 00:11:00,53.1,52.5,29.65,SW,225,13.0,13.0,98,0.00,,,0.00,VWS V14.01,2013-07-11 07:11:00,
2013-07-11 00:12:00,53.1,52.5,29.65,West,270,7.4,7.4,98,0.00,,,0.00,VWS V14.01,2013-07-11 07:12:00,
2013-07-11 00:13:00,53.1,52.5,29.65,West,270,7.4,7.4,98,0.00,,,0.00,VWS V14.01,2013-07-11 07:13:00,
2013-07-11 00:14:00,53.1,52.5,29.65,West,270,9.8,9.8,98,0.00,,,0.00,VWS V14.01,2013-07-11 07:14:00,
2013-07-11 00:15:00,53.1,52.5,29.65,WSW,248,5.4,5.4,98,0.00,,,0.00,VWS V14.01,2013-07-11 07:15:00,
2013-07-11 00:16:00,53.1,52.5,29.65,WNW,292,6.5,6.5,98,0.00,,,0.00,VWS V14.01,2013-07-11 07:16:00,
2013-07-11 00:17:00,53.1,52.5,29.65,WNW,292,6.5,6.5,98,0.00,,,0.00,VWS V14.01,2013-07-11 07:17:00,
2013-07-11 00:18:00,53.1,52.5,29.65,WNW,292,8.5,8.5,98,0.00,,,0.00,VWS V14.01,2013-07-11 07:18:00,
2013-07-11 00:19:00,53.1,52.5,29.65,WNW,292,8.5,8.5,98,0.00,,,0.00,VWS V14.01,2013-07-11 07:19:00,
2013-07-11 00:20:00,53.1,52.5,29.65,WNW,292,10.5,10.5,98,0.00,,,0.00,VWS V14.01,2013-07-11 07:20:00,
2013-07-11 00:21:00,52.9,52.3,29.65,SW,225,14.5,14.5,98,0.00,,,0.00,VWS V14.01,2013-07-11 07:21:00,
2013-07-11 00:22:00,52.9,52.3,29.65,WSW,248,10.1,10.1,98,0.00,,,0.00,VWS V14.01,2013-07-11 07:22:00,
2013-07-11 00:23:00,52.9,52.3,29.65,SSW,202,9.8,9.8,98,0.00,,,0.00,VWS V14.01,2013-07-11 07:23:00,
2013-07-11 00:24:00,52.9,52.3,29.65,SW,225,12.5,12.5,98,0.00,,,0.00,VWS V14.01,2013-07-11 07:24:00,
2013-07-11 00:25:00,52.9,52.3,29.65,West,270,7.2,7.2,98,0.00,,,0.00,VWS V14.01,2013-07-11 07:25:00,
2013-07-11 00:26:00,52.9,52.3,29.65,WSW,248,9.8,9.8,98,0.00,,,0.00,VWS V14.01,2013-07-11 07:26:00,
2013-07-11 00:27:00,52.9,52.3,29.65,SW,225,8.5,8.5,98,0.00,,,0.00,VWS V14.01,2013-07-11 07:27:00,
2013-07-11 00:28:00,52.9,52.3,29.65,West,270,7.4,7.4,98,0.00,,,0.00,VWS V14.01,2013-07-11 07:28:00,
2013-07-11 00:29:00,52.9,52.3,29.65,WSW,248,6.0,6.0,98,0.00,,,0.00,VWS V14.01,2013-07-11 07:29:00,
2013-07-11 00:30:00,52.9,52.3,29.65,West,270,7.4,7.4,98,0.00,,,0.00,VWS V14.01,2013-07-11 07:30:00,
2013-07-11 00:31:00,52.9,52.3,29.65,WNW,292,6.3,6.3,98,0.00,,,0.00,VWS V14.01,2013-07-11 07:31:00,
2013-07-11 00:32:00,53.1,52.5,29.65,West,270,9.2,9.2,98,0.00,,,0.00,VWS V14.01,2013-07-11 07:32:00,
2013-07-11 00:33:00,53.1,52.5,29.65,WSW,248,9.6,9.6,98,0.00,,,0.00,VWS V14.01,2013-07-11 07:33:00,
2013-07-11 00:34:00,52.9,52.3,29.65,WSW,248,9.6,9.6,98,0.00,,,0.00,VWS V14.01,2013-07-11 07:34:00,
2013-07-11 00:35:00,52.7,52.2,29.65,SW,225,9.8,9.8,98,0.00,,,0.00,VWS V14.01,2013-07-11 07:35:00,
2013-07-11 00:36:00,52.7,52.2,29.65,West,270,8.5,8.5,98,0.00,,,0.00,VWS V14.01,2013-07-11 07:36:00,
2013-07-11 00:37:00,52.7,52.2,29.65,West,270,13.0,13.0,98,0.00,,,0.00,VWS V14.01,2013-07-11 07:37:00,
2013-07-11 00:38:00,52.7,52.2,29.65,WSW,248,12.3,12.3,98,0.00,,,0.00,VWS V14.01,2013-07-11 07:38:00,
2013-07-11 00:39:00,52.7,52.2,29.65,WNW,292,13.6,13.6,98,0.00,,,0.00,VWS V14.01,2013-07-11 07:39:00,
2013-07-11 00:40:00,52.7,52.2,29.65,SSW,202,10.3,10.3,98,0.00,,,0.00,VWS V14.01,2013-07-11 07:40:00,
2013-07-11 00:41:00,52.7,52.2,29.65,WSW,248,14.8,14.8,98,0.00,,,0.00,VWS V14.01,2013-07-11 07:41:00,
2013-07-11 00:42:00,52.7,52.2,29.65,WSW,248,16.8,16.8,98,0.00,,,0.00,VWS V14.01,2013-07-11 07:42:00,
2013-07-11 00:43:00,52.5,52.0,29.65,WSW,248,7.8,7.8,98,0.00,,,0.00,VWS V14.01,2013-07-11 07:43:00,
2013-07-11 00:44:00,52.7,52.2,29.65,WSW,248,12.5,12.5,98,0.00,,,0.00,VWS V14.01,2013-07-11 07:44:00,
2013-07-11 00:45:00,52.7,52.2,29.65,WSW,248,12.1,12.1,98,0.00,,,0.00,VWS V14.01,2013-07-11 07:45:00,
2013-07-11 00:46:00,52.7,52.2,29.65,WSW,248,12.1,12.1,98,0.00,,,0.00,VWS V14.01,2013-07-11 07:46:00,
2013-07-11 00:47:00,52.7,52.2,29.65,WSW,248,12.1,12.1,98,0.00,,,0.00,VWS V14.01,2013-07-11 07:47:00,
2013-07-11 00:48:00,52.7,52.2,29.65,WSW,248,9.0,9.0,98,0.00,,,0.00,VWS V14.01,2013-07-11 07:48:00,
2013-07-11 00:49:00,52.7,52.2,29.65,WSW,248,14.3,14.3,98,0.00,,,0.00,VWS V14.01,2013-07-11 07:49:00,
2013-07-11 00:50:00,52.7,52.2,29.65,SW,225,8.7,8.7,98,0.00,,,0.00,VWS V14.01,2013-07-11 07:50:00,
2013-07-11 00:51:00,52.7,52.2,29.65,WSW,248,14.8,14.8,98,0.00,,,0.00,VWS V14.01,2013-07-11 07:51:00,
2013-07-11 00:52:00,52.7,52.2,29.65,WSW,248,14.8,14.8,98,0.00,,,0.00,VWS V14.01,2013-07-11 07:52:00,
2013-07-11 00:53:00,52.7,52.2,29.65,West,270,12.8,12.8,98,0.00,,,0.00,VWS V14.01,2013-07-11 07:53:00,
2013-07-11 00:54:00,52.7,52.2,29.65,WSW,248,13.2,13.2,98,0.00,,,0.00,VWS V14.01,2013-07-11 07:54:00,
2013-07-11 00:55:00,52.7,52.2,29.65,WSW,248,11.2,11.2,98,0.00,,,0.00,VWS V14.01,2013-07-11 07:55:00,
2013-07-11 00:56:00,52.7,52.2,29.65,WNW,292,8.1,8.1,98,0.00,,,0.00,VWS V14.01,2013-07-11 07:56:00,
2013-07-11 00:57:00,52.7,52.2,29.65,WNW,292,8.1,8.1,98,0.00,,,0.00,VWS V14.01,2013-07-11 07:57:00,
2013-07-11 00:58:00,52.7,52.2,29.65,WNW,292,11.2,11.2,98,0.00,,,0.00,VWS V14.01,2013-07-11 07:58:00,
2013-07-11 00:59:00,52.7,52.2,29.65,WSW,248,8.7,8.7,98,0.00,,,0.00,VWS V14.01,2013-07-11 07:59:00,
2013-07-11 01:00:00,52.9,52.3,29.65,West,270,8.5,8.5,98,0.00,,,0.00,VWS V14.01,2013-07-11 08:00:00,
2013-07-11 01:01:00,52.9,52.3,29.65,NW,315,9.6,9.6,98,0.00,,,0.00,VWS V14.01,2013-07-11 08:01:00,
2013-07-11 01:02:00,52.9,52.3,29.65,WSW,248,13.9,13.9,98,0.00,,,0.00,VWS V14.01,2013-07-11 08:02:00,
2013-07-11 01:03:00,52.9,52.3,29.65,West,270,4.0,4.0,98,0.00,,,0.00,VWS V14.01,2013-07-11 08:03:00,
2013-07-11 01:04:00,52.9,52.3,29.65,WSW,248,5.4,5.4,98,0.00,,,0.00,VWS V14.01,2013-07-11 08:04:00,
2013-07-11 01:05:00,52.9,52.3,29.65,WNW,292,5.4,5.4,98,0.00,,,0.00,VWS V14.01,2013-07-11 08:05:00,
2013-07-11 01:06:00,52.9,52.3,29.65,WNW,292,5.4,5.4,98,0.00,,,0.00,VWS V14.01,2013-07-11 08:06:00,
2013-07-11 01:08:00,52.9,52.3,29.65,WSW,248,4.9,4.9,98,0.00,,,0.00,VWS V14.01,2013-07-11 08:08:00,
2013-07-11 01:10:00,53.1,52.5,29.65,SSW,202,2.7,2.7,98,0.00,,,0.00,VWS V14.01,2013-07-11 08:10:00,
2013-07-11 01:11:00,53.1,52.5,29.65,WSW,248,8.5,8.5,98,0.00,,,0.00,VWS V14.01,2013-07-11 08:11:00,
2013-07-11 01:12:00,53.1,52.5,29.65,West,270,4.0,4.0,98,0.00,,,0.00,VWS V14.01,2013-07-11 08:12:00,
2013-07-11 01:13:00,53.1,52.5,29.65,West,270,4.0,4.0,98,0.00,,,0.00,VWS V14.01,2013-07-11 08:13:00,
2013-07-11 01:14:00,53.1,52.5,29.65,SW,225,5.6,5.6,98,0.00,,,0.00,VWS V14.01,2013-07-11 08:14:00,
2013-07-11 01:15:00,53.1,52.5,29.65,WSW,248,11.0,11.0,98,0.00,,,0.00,VWS V14.01,2013-07-11 08:15:00,
2013-07-11 01:16:00,52.9,52.3,29.65,West,270,7.6,7.6,98,0.00,,,0.00,VWS V14.01,2013-07-11 08:16:00,
2013-07-11 01:17:00,52.9,52.3,29.65,WSW,248,10.7,10.7,98,0.00,,,0.00,VWS V14.01,2013-07-11 08:17:00,
2013-07-11 01:18:00,52.9,52.3,29.65,WSW,248,12.3,12.3,98,0.00,,,0.00,VWS V14.01,2013-07-11 08:18:00,
2013-07-11 01:19:00,52.9,52.3,29.65,WSW,248,5.8,5.8,98,0.00,,,0.00,VWS V14.01,2013-07-11 08:19:00,
2013-07-11 01:20:00,52.9,52.3,29.65,SW,225,10.3,10.3,98,0.00,,,0.00,VWS V14.01,2013-07-11 08:20:00,
2013-07-11 01:21:00,52.9,52.3,29.65,SW,225,9.8,9.8,98,0.00,,,0.00,VWS V14.01,2013-07-11 08:21:00,
2013-07-11 01:23:00,52.9,52.3,29.65,West,270,13.0,13.0,98,0.00,,,0.00,VWS V14.01,2013-07-11 08:23:00,
2013-07-11 01:25:00,52.9,52.3,29.65,West,270,6.0,6.0,98,0.00,,,0.00,VWS V14.01,2013-07-11 08:25:00,
2013-07-11 01:26:00,53.1,52.5,29.65,WSW,248,6.0,6.0,98,0.00,,,0.00,VWS V14.01,2013-07-11 08:26:00,
2013-07-11 01:27:00,53.1,52.5,29.65,WSW,248,6.0,6.0,98,0.00,,,0.00,VWS V14.01,2013-07-11 08:27:00,
2013-07-11 01:28:00,53.1,52.5,29.65,WSW,248,3.4,3.4,98,0.00,,,0.00,VWS V14.01,2013-07-11 08:28:00,
2013-07-11 01:29:00,53.1,52.5,29.65,SW,225,10.1,10.1,98,0.00,,,0.00,VWS V14.01,2013-07-11 08:29:00,
2013-07-11 01:30:00,53.1,52.5,29.65,WNW,292,7.8,7.8,98,0.00,,,0.00,VWS V14.01,2013-07-11 08:30:00,
2013-07-11 01:31:00,53.1,52.5,29.65,WSW,248,6.5,6.5,98,0.00,,,0.00,VWS V14.01,2013-07-11 08:31:00,
2013-07-11 01:32:00,53.1,52.5,29.65,West,270,8.5,8.5,98,0.00,,,0.00,VWS V14.01,2013-07-11 08:32:00,
2013-07-11 01:33:00,53.1,52.5,29.65,West,270,8.5,8.5,98,0.00,,,0.00,VWS V14.01,2013-07-11 08:33:00,
2013-07-11 01:34:00,53.1,52.5,29.65,West,270,6.0,6.0,98,0.00,,,0.00,VWS V14.01,2013-07-11 08:34:00,
2013-07-11 01:35:00,53.1,52.5,29.65,WSW,248,5.8,5.8,98,0.00,,,0.00,VWS V14.01,2013-07-11 08:35:00,
2013-07-11 01:36:00,53.1,52.5,29.65,WSW,248,5.8,5.8,98,0.00,,,0.00,VWS V14.01,2013-07-11 08:36:00,
2013-07-11 01:38:00,53.1,52.5,29.65,WSW,248,6.5,6.5,98,0.00,,,0.00,VWS V14.01,2013-07-11 08:38:00,
2013-07-11 01:39:00,53.1,52.5,29.65,WNW,292,6.5,6.5,98,0.00,,,0.00,VWS V14.01,2013-07-11 08:39:00,
2013-07-11 01:40:00,53.1,52.5,29.65,WSW,248,7.4,7.4,98,0.00,,,0.00,VWS V14.01,2013-07-11 08:40:00,
2013-07-11 01:41:00,53.1,52.5,29.65,WSW,248,10.7,10.7,98,0.00,,,0.00,VWS V14.01,2013-07-11 08:41:00,
2013-07-11 01:42:00,53.1,52.5,29.65,WSW,248,10.7,10.7,98,0.00,,,0.00,VWS V14.01,2013-07-11 08:42:00,
2013-07-11 01:43:00,53.1,52.5,29.65,SW,225,7.4,7.4,98,0.00,,,0.00,VWS V14.01,2013-07-11 08:43:00,
2013-07-11 01:45:00,52.9,52.3,29.65,SW,225,10.5,10.5,98,0.00,,,0.00,VWS V14.01,2013-07-11 08:45:00,
2013-07-11 01:46:00,52.9,52.3,29.65,SW,225,10.5,10.5,98,0.00,,,0.00,VWS V14.01,2013-07-11 08:46:00,
2013-07-11 01:47:00,52.9,52.3,29.65,WSW,248,5.8,5.8,98,0.00,,,0.00,VWS V14.01,2013-07-11 08:47:00,
2013-07-11 01:49:00,52.9,52.3,29.65,West,270,9.8,9.8,98,0.00,,,0.00,VWS V14.01,2013-07-11 08:49:00,
2013-07-11 01:50:00,53.1,52.5,29.65,SSW,202,12.1,12.1,98,0.00,,,0.00,VWS V14.01,2013-07-11 08:50:00,
2013-07-11 01:51:00,52.9,52.3,29.65,West,270,12.8,12.8,98,0.00,,,0.00,VWS V14.01,2013-07-11 08:51:00,
2013-07-11 01:52:00,52.9,52.3,29.65,SW,225,10.1,10.1,98,0.00,,,0.00,VWS V14.01,2013-07-11 08:52:00,
2013-07-11 01:53:00,52.9,52.3,29.65,SW,225,12.5,12.5,98,0.00,,,0.00,VWS V14.01,2013-07-11 08:53:00,
2013-07-11 01:54:00,52.9,52.3,29.65,SW,225,11.9,11.9,98,0.00,,,0.00,VWS V14.01,2013-07-11 08:54:00,
2013-07-11 01:55:00,52.9,52.3,29.65,West,270,7.4,7.4,98,0.00,,,0.00,VWS V14.01,2013-07-11 08:55:00,
2013-07-11 01:56:00,52.9,52.3,29.65,West,270,10.5,10.5,98,0.00,,,0.00,VWS V14.01,2013-07-11 08:56:00,
2013-07-11 01:57:00,52.9,52.3,29.65,WSW,248,8.5,8.5,98,0.00,,,0.00,VWS V14.01,2013-07-11 08:57:00,
2013-07-11 01:59:00,52.9,52.3,29.65,WSW,248,9.2,9.2,98,0.00,,,0.00,VWS V14.01,2013-07-11 08:59:00,
2013-07-11 02:01:00,52.9,52.3,29.65,WSW,248,9.2,9.2,98,0.00,,,0.00,VWS V14.01,2013-07-11 09:01:00,
2013-07-11 02:02:00,52.9,52.3,29.65,WSW,248,13.2,13.2,98,0.00,,,0.00,VWS V14.01,2013-07-11 09:02:00,
2013-07-11 02:04:00,52.9,52.3,29.65,WSW,248,8.7,8.7,98,0.00,,,0.00,VWS V14.01,2013-07-11 09:04:00,
2013-07-11 02:05:00,52.9,52.3,29.65,WSW,248,8.7,8.7,98,0.00,,,0.00,VWS V14.01,2013-07-11 09:05:00,
2013-07-11 02:06:00,52.7,52.2,29.65,WSW,248,14.5,14.5,98,0.00,,,0.00,VWS V14.01,2013-07-11 09:06:00,
2013-07-11 02:07:00,52.7,52.2,29.65,West,270,15.4,15.4,98,0.00,,,0.00,VWS V14.01,2013-07-11 09:07:00,
2013-07-11 02:08:00,52.7,52.2,29.65,WSW,248,10.3,10.3,98,0.00,,,0.00,VWS V14.01,2013-07-11 09:08:00,
2013-07-11 02:09:00,52.7,52.2,29.65,WSW,248,12.5,12.5,98,0.00,,,0.00,VWS V14.01,2013-07-11 09:09:00,
2013-07-11 02:10:00,52.7,52.2,29.65,West,270,14.8,14.8,98,0.00,,,0.00,VWS V14.01,2013-07-11 09:10:00,
2013-07-11 02:11:00,52.7,52.2,29.65,WSW,248,13.0,13.0,98,0.00,,,0.00,VWS V14.01,2013-07-11 09:11:00,
2013-07-11 02:12:00,52.7,52.2,29.65,SW,225,17.2,17.2,98,0.00,,,0.00,VWS V14.01,2013-07-11 09:12:00,
2013-07-11 02:13:00,52.7,52.2,29.65,WSW,248,12.3,12.3,98,0.00,,,0.00,VWS V14.01,2013-07-11 09:13:00,
2013-07-11 02:14:00,52.7,52.2,29.65,SSW,202,15.4,15.4,98,0.00,,,0.00,VWS V14.01,2013-07-11 09:14:00,
2013-07-11 02:15:00,52.7,52.2,29.65,WSW,248,11.4,11.4,98,0.00,,,0.00,VWS V14.01,2013-07-11 09:15:00,
2013-07-11 02:16:00,52.7,52.2,29.65,SW,225,10.3,10.3,98,0.00,,,0.00,VWS V14.01,2013-07-11 09:16:00,
2013-07-11 02:17:00,52.7,52.2,29.65,SSW,202,8.1,8.1,98,0.00,,,0.00,VWS V14.01,2013-07-11 09:17:00,
2013-07-11 02:18:00,52.7,52.2,29.65,WSW,248,10.7,10.7,98,0.00,,,0.00,VWS V14.01,2013-07-11 09:18:00,
2013-07-11 02:19:00,52.7,52.2,29.65,SSW,202,7.8,7.8,98,0.00,,,0.00,VWS V14.01,2013-07-11 09:19:00,
2013-07-11 02:20:00,52.7,52.2,29.65,SSW,202,7.8,7.8,98,0.00,,,0.00,VWS V14.01,2013-07-11 09:20:00,
2013-07-11 02:21:00,52.7,52.2,29.65,WSW,248,10.3,10.3,98,0.00,,,0.00,VWS V14.01,2013-07-11 09:21:00,
2013-07-11 02:22:00,52.7,52.2,29.65,West,270,6.0,6.0,98,0.00,,,0.00,VWS V14.01,2013-07-11 09:22:00,
2013-07-11 02:23:00,52.7,52.2,29.65,SSW,202,8.5,8.5,98,0.00,,,0.00,VWS V14.01,2013-07-11 09:23:00,
2013-07-11 02:25:00,52.7,52.2,29.65,West,270,7.4,7.4,98,0.00,,,0.00,VWS V14.01,2013-07-11 09:25:00,
2013-07-11 02:26:00,52.7,52.2,29.65,WSW,248,4.9,4.9,98,0.00,,,0.00,VWS V14.01,2013-07-11 09:26:00,
2013-07-11 02:27:00,52.7,52.2,29.65,WSW,248,8.1,8.1,98,0.00,,,0.00,VWS V14.01,2013-07-11 09:27:00,
2013-07-11 02:29:00,52.7,52.2,29.65,SW,225,5.8,5.8,98,0.00,,,0.00,VWS V14.01,2013-07-11 09:29:00,
2013-07-11 02:31:00,52.7,52.2,29.65,WSW,248,8.5,8.5,98,0.00,,,0.00,VWS V14.01,2013-07-11 09:31:00,
2013-07-11 02:33:00,52.5,52.0,29.65,SW,225,4.7,4.7,98,0.00,,,0.00,VWS V14.01,2013-07-11 09:33:00,
2013-07-11 02:34:00,52.5,52.0,29.65,WSW,248,6.9,6.9,98,0.00,,,0.00,VWS V14.01,2013-07-11 09:34:00,
2013-07-11 02:35:00,52.5,52.0,29.65,SW,225,7.8,7.8,98,0.00,,,0.00,VWS V14.01,2013-07-11 09:35:00,
2013-07-11 02:36:00,52.3,51.8,29.65,SW,225,6.3,6.3,98,0.00,,,0.00,VWS V14.01,2013-07-11 09:36:00,
2013-07-11 02:37:00,52.3,51.8,29.65,WSW,248,9.8,9.8,98,0.00,,,0.00,VWS V14.01,2013-07-11 09:37:00,
2013-07-11 02:38:00,52.3,51.8,29.65,WSW,248,9.8,9.8,98,0.00,,,0.00,VWS V14.01,2013-07-11 09:38:00,
2013-07-11 02:39:00,52.3,51.8,29.65,SW,225,7.6,7.6,98,0.00,,,0.00,VWS V14.01,2013-07-11 09:39:00,
2013-07-11 02:40:00,52.3,51.8,29.65,SW,225,3.4,3.4,98,0.00,,,0.00,VWS V14.01,2013-07-11 09:40:00,
2013-07-11 02:41:00,52.3,51.8,29.65,WSW,248,3.6,3.6,98,0.00,,,0.00,VWS V14.01,2013-07-11 09:41:00,
2013-07-11 02:42:00,52.3,51.8,29.65,SW,225,9.2,9.2,98,0.00,,,0.00,VWS V14.01,2013-07-11 09:42:00,
2013-07-11 02:43:00,52.3,51.8,29.65,WSW,248,5.8,5.8,98,0.00,,,0.00,VWS V14.01,2013-07-11 09:43:00,
2013-07-11 02:44:00,52.5,52.0,29.65,SSW,202,3.6,3.6,98,0.00,,,0.00,VWS V14.01,2013-07-11 09:44:00,
2013-07-11 02:45:00,52.5,52.0,29.65,SSW,202,5.6,5.6,98,0.00,,,0.00,VWS V14.01,2013-07-11 09:45:00,
2013-07-11 02:46:00,52.5,52.0,29.65,WSW,248,7.4,7.4,98,0.00,,,0.00,VWS V14.01,2013-07-11 09:46:00,
2013-07-11 02:47:00,52.5,52.0,29.65,SW,225,6.0,6.0,98,0.00,,,0.00,VWS V14.01,2013-07-11 09:47:00,
2013-07-11 02:48:00,52.5,52.0,29.65,SSW,202,9.8,9.8,98,0.00,,,0.00,VWS V14.01,2013-07-11 09:48:00,
2013-07-11 02:49:00,52.5,52.0,29.65,WSW,248,1.3,1.3,98,0.00,,,0.00,VWS V14.01,2013-07-11 09:49:00,
2013-07-11 02:50:00,52.5,52.0,29.65,SW,225,6.3,6.3,98,0.00,,,0.00,VWS V14.01,2013-07-11 09:50:00,
2013-07-11 02:51:00,52.7,52.2,29.65,SW,225,5.8,5.8,98,0.00,,,0.00,VWS V14.01,2013-07-11 09:51:00,
2013-07-11 02:52:00,52.7,52.2,29.65,West,270,5.8,5.8,98,0.00,,,0.00,VWS V14.01,2013-07-11 09:52:00,
2013-07-11 02:53:00,52.7,52.2,29.65,WSW,248,4.3,4.3,98,0.00,,,0.00,VWS V14.01,2013-07-11 09:53:00,
2013-07-11 02:54:00,52.7,52.2,29.65,WSW,248,4.3,4.3,98,0.00,,,0.00,VWS V14.01,2013-07-11 09:54:00,
2013-07-11 02:55:00,52.7,52.2,29.65,WNW,292,3.4,3.4,98,0.00,,,0.00,VWS V14.01,2013-07-11 09:55:00,
2013-07-11 02:56:00,52.7,52.2,29.65,WNW,292,5.6,5.6,98,0.00,,,0.00,VWS V14.01,2013-07-11 09:56:00,
2013-07-11 02:57:00,52.7,52.2,29.65,WSW,248,4.0,4.0,98,0.00,,,0.00,VWS V14.01,2013-07-11 09:57:00,
2013-07-11 02:58:00,52.7,52.2,29.65,WSW,248,3.6,3.6,98,0.00,,,0.00,VWS V14.01,2013-07-11 09:58:00,
2013-07-11 02:59:00,52.7,52.2,29.65,SW,225,4.3,4.3,98,0.00,,,0.00,VWS V14.01,2013-07-11 09:59:00,
2013-07-11 03:00:00,52.7,52.2,29.65,West,270,3.6,3.6,98,0.00,,,0.00,VWS V14.01,2013-07-11 10:00:00,
2013-07-11 03:01:00,52.7,52.2,29.65,WSW,248,6.5,6.5,98,0.00,,,0.00,VWS V14.01,2013-07-11 10:01:00,
2013-07-11 03:02:00,52.7,52.2,29.65,SW,225,4.3,4.3,98,0.00,,,0.00,VWS V14.01,2013-07-11 10:02:00,
2013-07-11 03:03:00,52.7,52.2,29.65,WNW,292,3.1,3.1,98,0.00,,,0.00,VWS V14.01,2013-07-11 10:03:00,
2013-07-11 03:04:00,52.5,52.0,29.65,SW,225,6.3,6.3,98,0.00,,,0.00,VWS V14.01,2013-07-11 10:04:00,
2013-07-11 03:05:00,52.5,52.0,29.65,West,270,4.7,4.7,98,0.00,,,0.00,VWS V14.01,2013-07-11 10:05:00,
2013-07-11 03:06:00,52.5,52.0,29.65,SSW,202,8.7,8.7,98,0.00,,,0.00,VWS V14.01,2013-07-11 10:06:00,
2013-07-11 03:07:00,52.5,52.0,29.65,West,270,9.8,9.8,98,0.00,,,0.00,VWS V14.01,2013-07-11 10:07:00,
2013-07-11 03:08:00,52.5,52.0,29.65,West,270,3.4,3.4,98,0.00,,,0.00,VWS V14.01,2013-07-11 10:08:00,
2013-07-11 03:09:00,52.5,52.0,29.65,WNW,292,4.0,4.0,98,0.00,,,0.00,VWS V14.01,2013-07-11 10:09:00,
2013-07-11 03:10:00,52.5,52.0,29.65,West,270,6.0,6.0,98,0.00,,,0.00,VWS V14.01,2013-07-11 10:10:00,
2013-07-11 03:11:00,52.5,52.0,29.65,WNW,292,5.6,5.6,98,0.00,,,0.00,VWS V14.01,2013-07-11 10:11:00,
2013-07-11 03:12:00,52.5,52.0,29.65,WSW,248,9.8,9.8,98,0.00,,,0.00,VWS V14.01,2013-07-11 10:12:00,
2013-07-11 03:13:00,52.5,52.0,29.65,SW,225,5.6,5.6,98,0.00,,,0.00,VWS V14.01,2013-07-11 10:13:00,
2013-07-11 03:14:00,52.5,52.0,29.65,SW,225,5.6,5.6,98,0.00,,,0.00,VWS V14.01,2013-07-11 10:14:00,
2013-07-11 03:15:00,52.5,52.0,29.65,WSW,248,4.9,4.9,98,0.00,,,0.00,VWS V14.01,2013-07-11 10:15:00,
2013-07-11 03:16:00,52.3,51.8,29.65,WSW,248,6.5,6.5,98,0.00,,,0.00,VWS V14.01,2013-07-11 10:16:00,
2013-07-11 03:17:00,52.3,51.8,29.65,WSW,248,3.1,3.1,98,0.00,,,0.00,VWS V14.01,2013-07-11 10:17:00,
2013-07-11 03:18:00,52.3,51.8,29.65,WNW,292,5.6,5.6,98,0.00,,,0.00,VWS V14.01,2013-07-11 10:18:00,
2013-07-11 03:19:00,52.3,51.8,29.65,WNW,292,5.6,5.6,98,0.00,,,0.00,VWS V14.01,2013-07-11 10:19:00,
2013-07-11 03:20:00,52.2,51.6,29.65,SSW,202,3.8,3.8,98,0.00,,,0.00,VWS V14.01,2013-07-11 10:20:00,
2013-07-11 03:21:00,52.2,51.6,29.65,SSW,202,3.8,3.8,98,0.00,,,0.00,VWS V14.01,2013-07-11 10:21:00,
2013-07-11 03:22:00,52.2,51.6,29.65,SW,225,7.4,7.4,98,0.00,,,0.00,VWS V14.01,2013-07-11 10:22:00,
2013-07-11 03:23:00,52.2,51.6,29.65,SW,225,7.4,7.4,98,0.00,,,0.00,VWS V14.01,2013-07-11 10:23:00,
2013-07-11 03:24:00,52.2,51.6,29.65,SW,225,10.5,10.5,98,0.00,,,0.00,VWS V14.01,2013-07-11 10:24:00,
2013-07-11 03:25:00,52.2,51.6,29.65,SW,225,10.5,10.5,98,0.00,,,0.00,VWS V14.01,2013-07-11 10:25:00,
2013-07-11 03:26:00,52.2,51.6,29.65,SW,225,10.5,10.5,98,0.00,,,0.00,VWS V14.01,2013-07-11 10:26:00,
2013-07-11 03:27:00,52.0,51.4,29.65,West,270,7.8,7.8,98,0.00,,,0.00,VWS V14.01,2013-07-11 10:27:00,
2013-07-11 03:28:00,52.0,51.4,29.65,West,270,7.8,7.8,98,0.00,,,0.00,VWS V14.01,2013-07-11 10:28:00,
2013-07-11 03:29:00,52.0,51.4,29.65,SSW,202,6.0,6.0,98,0.00,,,0.00,VWS V14.01,2013-07-11 10:29:00,
2013-07-11 03:30:00,51.8,51.3,29.65,WSW,248,5.4,5.4,98,0.00,,,0.00,VWS V14.01,2013-07-11 10:30:00,
2013-07-11 03:31:00,51.8,51.3,29.65,WSW,248,5.4,5.4,98,0.00,,,0.00,VWS V14.01,2013-07-11 10:31:00,
2013-07-11 03:32:00,52.0,51.4,29.65,WSW,248,5.4,5.4,98,0.00,,,0.00,VWS V14.01,2013-07-11 10:32:00,
2013-07-11 03:34:00,51.8,51.3,29.65,WSW,248,8.5,8.5,98,0.00,,,0.00,VWS V14.01,2013-07-11 10:34:00,
2013-07-11 03:35:00,51.8,51.3,29.65,WSW,248,8.5,8.5,98,0.00,,,0.00,VWS V14.01,2013-07-11 10:35:00,
2013-07-11 03:36:00,52.0,51.4,29.65,WSW,248,8.5,8.5,98,0.00,,,0.00,VWS V14.01,2013-07-11 10:36:00,
2013-07-11 03:37:00,52.0,51.4,29.65,WSW,248,8.5,8.5,98,0.00,,,0.00,VWS V14.01,2013-07-11 10:37:00,
2013-07-11 03:39:00,52.0,51.4,29.65,WSW,248,5.8,5.8,98,0.00,,,0.00,VWS V14.01,2013-07-11 10:39:00,
2013-07-11 03:40:00,52.0,51.4,29.65,WSW,248,5.8,5.8,98,0.00,,,0.00,VWS V14.01,2013-07-11 10:40:00,
2013-07-11 03:41:00,52.0,51.4,29.65,SW,225,6.0,6.0,98,0.00,,,0.00,VWS V14.01,2013-07-11 10:41:00,
2013-07-11 03:43:00,52.0,51.4,29.65,West,270,5.8,5.8,98,0.00,,,0.00,VWS V14.01,2013-07-11 10:43:00,
2013-07-11 03:44:00,52.0,51.4,29.65,West,270,5.8,5.8,98,0.00,,,0.00,VWS V14.01,2013-07-11 10:44:00,
2013-07-11 03:45:00,52.0,51.4,29.65,West,270,5.8,5.8,98,0.00,,,0.00,VWS V14.01,2013-07-11 10:45:00,
2013-07-11 03:46:00,52.0,51.4,29.65,WSW,248,9.2,9.2,98,0.00,,,0.00,VWS V14.01,2013-07-11 10:46:00,
2013-07-11 03:51:00,52.0,51.4,29.65,WSW,248,9.6,9.6,98,0.00,,,0.00,VWS V14.01,2013-07-11 10:51:00,
2013-07-11 03:52:00,51.8,51.3,29.65,West,270,5.8,5.8,98,0.00,,,0.00,VWS V14.01,2013-07-11 10:52:00,
2013-07-11 03:53:00,51.8,51.3,29.65,WSW,248,11.0,11.0,98,0.00,,,0.00,VWS V14.01,2013-07-11 10:53:00,
2013-07-11 03:54:00,51.8,51.3,29.65,WSW,248,9.8,9.8,98,0.00,,,0.00,VWS V14.01,2013-07-11 10:54:00,
2013-07-11 03:55:00,51.8,51.3,29.65,WNW,292,7.2,7.2,98,0.00,,,0.00,VWS V14.01,2013-07-11 10:55:00,
2013-07-11 03:56:00,51.8,51.3,29.65,WSW,248,10.3,10.3,98,0.00,,,0.00,VWS V14.01,2013-07-11 10:56:00,
2013-07-11 03:57:00,51.8,51.3,29.65,West,270,7.8,7.8,98,0.00,,,0.00,VWS V14.01,2013-07-11 10:57:00,
2013-07-11 03:58:00,51.8,51.3,29.65,SW,225,10.5,10.5,98,0.00,,,0.00,VWS V14.01,2013-07-11 10:58:00,
2013-07-11 03:59:00,51.8,51.3,29.65,WSW,248,3.8,3.8,98,0.00,,,0.00,VWS V14.01,2013-07-11 10:59:00,
2013-07-11 04:00:00,51.8,51.3,29.65,West,270,9.8,9.8,98,0.00,,,0.00,VWS V14.01,2013-07-11 11:00:00,
2013-07-11 04:01:00,51.8,51.3,29.65,WSW,248,4.0,4.0,98,0.00,,,0.00,VWS V14.01,2013-07-11 11:01:00,
2013-07-11 04:02:00,51.8,51.3,29.65,WSW,248,4.0,4.0,98,0.00,,,0.00,VWS V14.01,2013-07-11 11:02:00,
2013-07-11 04:03:00,51.8,51.3,29.65,WSW,248,4.0,4.0,98,0.00,,,0.00,VWS V14.01,2013-07-11 11:03:00,
2013-07-11 04:04:00,51.8,51.3,29.65,WSW,248,7.2,7.2,98,0.00,,,0.00,VWS V14.01,2013-07-11 11:04:00,
2013-07-11 04:05:00,51.6,51.1,29.65,WSW,248,7.8,7.8,98,0.00,,,0.00,VWS V14.01,2013-07-11 11:05:00,
2013-07-11 04:06:00,51.6,51.1,29.65,WSW,248,7.8,7.8,98,0.00,,,0.00,VWS V14.01,2013-07-11 11:06:00,
2013-07-11 04:08:00,51.8,51.3,29.65,WSW,248,7.6,7.6,98,0.00,,,0.00,VWS V14.01,2013-07-11 11:08:00,
2013-07-11 04:09:00,51.8,51.3,29.65,WSW,248,4.9,4.9,98,0.00,,,0.00,VWS V14.01,2013-07-11 11:09:00,
2013-07-11 04:10:00,51.8,51.3,29.65,WSW,248,4.9,4.9,98,0.00,,,0.00,VWS V14.01,2013-07-11 11:10:00,
2013-07-11 04:11:00,51.8,51.3,29.65,WSW,248,4.9,4.9,98,0.00,,,0.00,VWS V14.01,2013-07-11 11:11:00,
2013-07-11 04:12:00,51.8,51.3,29.65,WSW,248,4.9,4.9,98,0.00,,,0.00,VWS V14.01,2013-07-11 11:12:00,
2013-07-11 04:13:00,51.8,51.3,29.65,WSW,248,4.9,4.9,98,0.00,,,0.00,VWS V14.01,2013-07-11 11:13:00,
2013-07-11 04:14:00,51.8,51.3,29.65,WNW,292,7.4,7.4,98,0.00,,,0.00,VWS V14.01,2013-07-11 11:14:00,
2013-07-11 04:15:00,51.8,51.3,29.65,WNW,292,7.2,7.2,98,0.00,,,0.00,VWS V14.01,2013-07-11 11:15:00,
2013-07-11 04:16:00,51.8,51.3,29.65,WNW,292,7.2,7.2,98,0.00,,,0.00,VWS V14.01,2013-07-11 11:16:00,
2013-07-11 04:17:00,51.8,51.3,29.65,WNW,292,7.2,7.2,98,0.00,,,0.00,VWS V14.01,2013-07-11 11:17:00,
2013-07-11 04:19:00,51.8,51.3,29.65,WNW,292,7.2,7.2,98,0.00,,,0.00,VWS V14.01,2013-07-11 11:19:00,
2013-07-11 04:20:00,51.8,51.3,29.65,WSW,248,3.6,3.6,98,0.00,,,0.00,VWS V14.01,2013-07-11 11:20:00,
2013-07-11 04:21:00,51.8,51.3,29.65,WSW,248,3.6,3.6,98,0.00,,,0.00,VWS V14.01,2013-07-11 11:21:00,
2013-07-11 04:22:00,51.8,51.3,29.65,WSW,248,3.6,3.6,98,0.00,,,0.00,VWS V14.01,2013-07-11 11:22:00,
2013-07-11 04:23:00,51.8,51.3,29.65,WSW,248,0.9,0.9,98,0.00,,,0.00,VWS V14.01,2013-07-11 11:23:00,
2013-07-11 04:24:00,51.8,51.3,29.65,WSW,248,0.9,0.9,98,0.00,,,0.00,VWS V14.01,2013-07-11 11:24:00,
2013-07-11 04:25:00,51.8,51.3,29.65,WSW,248,2.9,2.9,98,0.00,,,0.00,VWS V14.01,2013-07-11 11:25:00,
2013-07-11 04:26:00,51.8,51.3,29.65,WSW,248,2.9,2.9,98,0.00,,,0.00,VWS V14.01,2013-07-11 11:26:00,
2013-07-11 04:27:00,51.8,51.3,29.65,WNW,292,4.7,4.7,98,0.00,,,0.00,VWS V14.01,2013-07-11 11:27:00,
2013-07-11 04:30:00,51.8,51.3,29.65,WNW,292,2.5,2.5,98,0.00,,,0.00,VWS V14.01,2013-07-11 11:30:00,
2013-07-11 04:31:00,51.8,51.3,29.65,WNW,292,2.5,2.5,98,0.00,,,0.00,VWS V14.01,2013-07-11 11:31:00,
2013-07-11 04:32:00,51.8,51.3,29.65,WNW,292,2.5,2.5,98,0.00,,,0.00,VWS V14.01,2013-07-11 11:32:00,
2013-07-11 04:34:00,51.8,51.3,29.65,WNW,292,3.6,3.6,98,0.00,,,0.00,VWS V14.01,2013-07-11 11:34:00,
2013-07-11 04:35:00,51.8,51.3,29.65,WSW,248,5.4,5.4,98,0.00,,,0.00,VWS V14.01,2013-07-11 11:35:00,
2013-07-11 04:36:00,51.8,51.3,29.65,WSW,248,5.4,5.4,98,0.00,,,0.00,VWS V14.01,2013-07-11 11:36:00,
2013-07-11 04:38:00,51.6,51.1,29.65,WSW,248,6.0,6.0,98,0.00,,,0.00,VWS V14.01,2013-07-11 11:38:00,
2013-07-11 04:40:00,51.6,51.1,29.65,WSW,248,6.3,6.3,98,0.00,,,0.00,VWS V14.01,2013-07-11 11:40:00,
2013-07-11 04:41:00,51.6,51.1,29.65,WSW,248,6.3,6.3,98,0.00,,,0.00,VWS V14.01,2013-07-11 11:41:00,
2013-07-11 04:42:00,51.6,51.1,29.65,WSW,248,4.9,4.9,98,0.00,,,0.00,VWS V14.01,2013-07-11 11:42:00,
2013-07-11 04:43:00,51.6,51.1,29.65,SSW,202,6.5,6.5,98,0.00,,,0.00,VWS V14.01,2013-07-11 11:43:00,
2013-07-11 04:44:00,51.6,51.1,29.65,WSW,248,7.4,7.4,98,0.00,,,0.00,VWS V14.01,2013-07-11 11:44:00,
2013-07-11 04:45:00,51.6,51.1,29.65,WSW,248,7.4,7.4,98,0.00,,,0.00,VWS V14.01,2013-07-11 11:45:00,
2013-07-11 04:46:00,51.6,51.1,29.65,WSW,248,3.4,3.4,98,0.00,,,0.00,VWS V14.01,2013-07-11 11:46:00,
2013-07-11 04:47:00,51.6,51.1,29.65,WSW,248,6.5,6.5,98,0.00,,,0.00,VWS V14.01,2013-07-11 11:47:00,
2013-07-11 04:48:00,51.6,51.1,29.65,WNW,292,4.9,4.9,98,0.00,,,0.00,VWS V14.01,2013-07-11 11:48:00,
2013-07-11 04:49:00,51.6,51.1,29.65,SSW,202,3.1,3.1,98,0.00,,,0.00,VWS V14.01,2013-07-11 11:49:00,
2013-07-11 04:50:00,51.6,51.1,29.65,West,270,4.7,4.7,98,0.00,,,0.00,VWS V14.01,2013-07-11 11:50:00,
2013-07-11 04:52:00,51.6,51.1,29.65,West,270,4.7,4.7,98,0.00,,,0.00,VWS V14.01,2013-07-11 11:52:00,
2013-07-11 04:53:00,51.6,51.1,29.65,SW,225,5.6,5.6,98,0.00,,,0.00,VWS V14.01,2013-07-11 11:53:00,
2013-07-11 04:55:00,51.6,51.1,29.65,SSW,202,8.7,8.7,98,0.00,,,0.00,VWS V14.01,2013-07-11 11:55:00,
2013-07-11 04:56:00,51.6,51.1,29.65,SSW,202,8.7,8.7,98,0.00,,,0.00,VWS V14.01,2013-07-11 11:56:00,
2013-07-11 04:58:00,51.6,51.1,29.65,SW,225,4.7,4.7,98,0.00,,,0.00,VWS V14.01,2013-07-11 11:58:00,
2013-07-11 04:59:00,51.6,51.1,29.65,WSW,248,4.0,4.0,98,0.00,,,0.00,VWS V14.01,2013-07-11 11:59:00,
2013-07-11 05:00:00,51.6,51.1,29.65,WSW,248,4.3,4.3,98,0.00,,,0.00,VWS V14.01,2013-07-11 12:00:00,
2013-07-11 05:01:00,51.6,51.1,29.65,WSW,248,4.3,4.3,98,0.00,,,0.00,VWS V14.01,2013-07-11 12:01:00,
2013-07-11 05:02:00,51.6,51.1,29.65,WSW,248,5.6,5.6,98,0.00,,,0.00,VWS V14.01,2013-07-11 12:02:00,
2013-07-11 05:03:00,51.6,51.1,29.65,SW,225,5.6,5.6,98,0.00,,,0.00,VWS V14.01,2013-07-11 12:03:00,
2013-07-11 05:04:00,51.6,51.1,29.65,SW,225,5.6,5.6,98,0.00,,,0.00,VWS V14.01,2013-07-11 12:04:00,
2013-07-11 05:05:00,51.6,51.1,29.65,SSW,202,8.7,8.7,98,0.00,,,0.00,VWS V14.01,2013-07-11 12:05:00,
2013-07-11 05:06:00,51.6,51.1,29.65,SSW,202,8.7,8.7,98,0.00,,,0.00,VWS V14.01,2013-07-11 12:06:00,
2013-07-11 05:07:00,51.4,50.9,29.65,WSW,248,8.7,8.7,98,0.00,,,0.00,VWS V14.01,2013-07-11 12:07:00,
2013-07-11 05:08:00,51.4,50.9,29.65,WSW,248,8.7,8.7,98,0.00,,,0.00,VWS V14.01,2013-07-11 12:08:00,
2013-07-11 05:09:00,51.4,50.9,29.65,WSW,248,6.5,6.5,98,0.00,,,0.00,VWS V14.01,2013-07-11 12:09:00,
2013-07-11 05:10:00,51.4,50.9,29.65,WSW,248,8.1,8.1,98,0.00,,,0.00,VWS V14.01,2013-07-11 12:10:00,
2013-07-11 05:12:00,51.4,50.9,29.65,SSW,202,2.5,2.5,98,0.00,,,0.00,VWS V14.01,2013-07-11 12:12:00,
2013-07-11 05:13:00,51.4,50.9,29.65,WSW,248,4.3,4.3,98,0.00,,,0.00,VWS V14.01,2013-07-11 12:13:00,
2013-07-11 05:14:00,51.4,50.9,29.65,SSW,202,3.8,3.8,98,0.00,,,0.00,VWS V14.01,2013-07-11 12:14:00,
2013-07-11 05:15:00,51.4,50.9,29.65,WSW,248,4.9,4.9,98,0.00,,,0.00,VWS V14.01,2013-07-11 12:15:00,
2013-07-11 05:16:00,51.4,50.9,29.65,WSW,248,4.9,4.9,98,0.00,,,0.00,VWS V14.01,2013-07-11 12:16:00,
2013-07-11 05:17:00,51.4,50.9,29.65,WSW,248,4.9,4.9,98,0.00,,,0.00,VWS V14.01,2013-07-11 12:17:00,
2013-07-11 05:20:00,51.4,50.9,29.65,West,270,3.8,3.8,98,0.00,,,0.00,VWS V14.01,2013-07-11 12:20:00,
2013-07-11 05:21:00,51.4,50.9,29.65,WSW,248,5.6,5.6,98,0.00,,,0.00,VWS V14.01,2013-07-11 12:21:00,
2013-07-11 05:23:00,51.3,50.7,29.65,SSW,202,3.1,3.1,98,0.00,,,0.00,VWS V14.01,2013-07-11 12:23:00,
2013-07-11 05:24:00,51.3,50.7,29.68,SSW,202,3.8,3.8,98,0.00,,,0.00,VWS V14.01,2013-07-11 12:24:00,
2013-07-11 05:25:00,51.3,50.7,29.68,SSW,202,1.6,1.6,98,0.00,,,0.00,VWS V14.01,2013-07-11 12:25:00,
2013-07-11 05:26:00,51.3,50.7,29.68,SSW,202,1.6,1.6,98,0.00,,,0.00,VWS V14.01,2013-07-11 12:26:00,
2013-07-11 05:28:00,51.3,50.7,29.68,WSW,248,2.9,2.9,98,0.00,,,0.00,VWS V14.01,2013-07-11 12:28:00,
2013-07-11 05:30:00,51.4,50.9,29.68,West,270,5.6,5.6,98,0.00,,,0.00,VWS V14.01,2013-07-11 12:30:00,
2013-07-11 05:31:00,51.4,50.9,29.68,West,270,5.6,5.6,98,0.00,,,0.00,VWS V14.01,2013-07-11 12:31:00,
2013-07-11 05:32:00,51.4,50.9,29.68,WSW,248,2.2,2.2,98,0.00,,,0.00,VWS V14.01,2013-07-11 12:32:00,
2013-07-11 05:34:00,51.4,50.9,29.68,SW,225,5.8,5.8,98,0.00,,,0.00,VWS V14.01,2013-07-11 12:34:00,
2013-07-11 05:35:00,51.4,50.9,29.68,SW,225,8.5,8.5,98,0.00,,,0.00,VWS V14.01,2013-07-11 12:35:00,
2013-07-11 05:36:00,51.4,50.9,29.68,SW,225,8.5,8.5,98,0.00,,,0.00,VWS V14.01,2013-07-11 12:36:00,
2013-07-11 05:37:00,51.4,50.9,29.68,SSW,202,10.1,10.1,98,0.00,,,0.00,VWS V14.01,2013-07-11 12:37:00,
2013-07-11 05:38:00,51.4,50.9,29.68,SSW,202,8.7,8.7,98,0.00,,,0.00,VWS V14.01,2013-07-11 12:38:00,
2013-07-11 05:39:00,51.4,50.9,29.68,SSW,202,8.7,8.7,98,0.00,,,0.00,VWS V14.01,2013-07-11 12:39:00,
2013-07-11 05:40:00,51.4,50.9,29.68,SW,225,4.9,4.9,98,0.00,,,0.00,VWS V14.01,2013-07-11 12:40:00,
2013-07-11 05:41:00,51.4,50.9,29.68,SW,225,4.9,4.9,98,0.00,,,0.00,VWS V14.01,2013-07-11 12:41:00,
2013-07-11 05:43:00,51.4,50.9,29.68,SSW,202,4.0,4.0,98,0.00,,,0.00,VWS V14.01,2013-07-11 12:43:00,
2013-07-11 05:44:00,51.4,50.9,29.68,WSW,248,7.6,7.6,98,0.00,,,0.00,VWS V14.01,2013-07-11 12:44:00,
2013-07-11 05:45:00,51.4,50.9,29.68,SW,225,6.3,6.3,98,0.00,,,0.00,VWS V14.01,2013-07-11 12:45:00,
2013-07-11 05:46:00,51.4,50.9,29.68,SSW,202,4.9,4.9,98,0.00,,,0.00,VWS V14.01,2013-07-11 12:46:00,
2013-07-11 05:47:00,51.4,50.9,29.68,WSW,248,6.5,6.5,98,0.00,,,0.00,VWS V14.01,2013-07-11 12:47:00,
2013-07-11 05:48:00,51.4,50.9,29.68,SW,225,1.6,1.6,98,0.00,,,0.00,VWS V14.01,2013-07-11 12:48:00,
2013-07-11 05:49:00,51.4,50.9,29.68,SW,225,1.3,1.3,98,0.00,,,0.00,VWS V14.01,2013-07-11 12:49:00,
2013-07-11 05:50:00,51.4,50.9,29.68,WSW,248,7.4,7.4,98,0.00,,,0.00,VWS V14.01,2013-07-11 12:50:00,
2013-07-11 05:52:00,51.4,50.9,29.68,WSW,248,7.4,7.4,98,0.00,,,0.00,VWS V14.01,2013-07-11 12:52:00,
2013-07-11 05:53:00,51.4,50.9,29.68,WSW,248,2.0,2.0,98,0.00,,,0.00,VWS V14.01,2013-07-11 12:53:00,
2013-07-11 05:54:00,51.4,50.9,29.68,WSW,248,4.7,4.7,98,0.00,,,0.00,VWS V14.01,2013-07-11 12:54:00,
2013-07-11 05:55:00,51.4,50.9,29.68,SW,225,3.1,3.1,98,0.00,,,0.00,VWS V14.01,2013-07-11 12:55:00,
2013-07-11 05:56:00,51.4,50.9,29.68,SW,225,3.1,3.1,98,0.00,,,0.00,VWS V14.01,2013-07-11 12:56:00,
2013-07-11 06:00:00,51.4,50.9,29.68,SW,225,6.5,6.5,98,0.00,,,0.00,VWS V14.01,2013-07-11 13:00:00,
2013-07-11 06:01:00,51.4,50.9,29.68,SSW,202,5.8,5.8,98,0.00,,,0.00,VWS V14.01,2013-07-11 13:01:00,
2013-07-11 06:02:00,51.4,50.9,29.68,SW,225,6.3,6.3,98,0.00,,,0.00,VWS V14.01,2013-07-11 13:02:00,
2013-07-11 06:03:00,51.4,50.9,29.68,SW,225,6.3,6.3,98,0.00,,,0.00,VWS V14.01,2013-07-11 13:03:00,
2013-07-11 06:04:00,51.4,50.9,29.68,SW,225,6.3,6.3,98,0.00,,,0.00,VWS V14.01,2013-07-11 13:04:00,
2013-07-11 06:05:00,51.4,50.9,29.68,SW,225,6.3,6.3,98,0.00,,,0.00,VWS V14.01,2013-07-11 13:05:00,
2013-07-11 06:06:00,51.4,50.9,29.68,SW,225,3.4,3.4,98,0.00,,,0.00,VWS V14.01,2013-07-11 13:06:00,
2013-07-11 06:07:00,51.4,50.9,29.68,SW,225,3.4,3.4,98,0.00,,,0.00,VWS V14.01,2013-07-11 13:07:00,
2013-07-11 06:08:00,51.4,50.9,29.68,SW,225,3.4,3.4,98,0.00,,,0.00,VWS V14.01,2013-07-11 13:08:00,
2013-07-11 06:10:00,51.6,51.1,29.68,SW,225,6.5,6.5,98,0.00,,,0.00,VWS V14.01,2013-07-11 13:10:00,
2013-07-11 06:11:00,51.6,51.1,29.68,SW,225,6.5,6.5,98,0.00,,,0.00,VWS V14.01,2013-07-11 13:11:00,
2013-07-11 06:13:00,51.6,51.1,29.68,SSW,202,7.8,7.8,98,0.00,,,0.00,VWS V14.01,2013-07-11 13:13:00,
2013-07-11 06:14:00,51.6,51.1,29.68,WNW,292,5.6,5.6,98,0.00,,,0.00,VWS V14.01,2013-07-11 13:14:00,
2013-07-11 06:15:00,51.6,51.1,29.68,SSW,202,1.3,1.3,98,0.00,,,0.00,VWS V14.01,2013-07-11 13:15:00,
2013-07-11 06:16:00,51.6,51.1,29.68,SSW,202,5.6,5.6,98,0.00,,,0.00,VWS V14.01,2013-07-11 13:16:00,
2013-07-11 06:18:00,51.6,51.1,29.68,WSW,248,6.3,6.3,98,0.00,,,0.00,VWS V14.01,2013-07-11 13:18:00,
2013-07-11 06:19:00,51.6,51.1,29.68,SSW,202,1.3,1.3,98,0.00,,,0.00,VWS V14.01,2013-07-11 13:19:00,
2013-07-11 06:21:00,51.6,51.1,29.68,SW,225,3.4,3.4,98,0.00,,,0.00,VWS V14.01,2013-07-11 13:21:00,
2013-07-11 06:23:00,51.6,51.1,29.68,SW,225,3.4,3.4,98,0.00,,,0.00,VWS V14.01,2013-07-11 13:23:00,
2013-07-11 06:24:00,51.6,51.1,29.68,SW,225,6.5,6.5,98,0.00,,,0.00,VWS V14.01,2013-07-11 13:24:00,
2013-07-11 06:25:00,51.6,51.1,29.68,SW,225,6.5,6.5,98,0.00,,,0.00,VWS V14.01,2013-07-11 13:25:00,
2013-07-11 06:26:00,51.6,51.1,29.68,WSW,248,0.0,0.0,98,0.00,,,0.00,VWS V14.01,2013-07-11 13:26:00,
2013-07-11 06:27:00,51.6,51.1,29.68,SSW,202,2.0,2.0,98,0.00,,,0.00,VWS V14.01,2013-07-11 13:27:00,
2013-07-11 06:28:00,51.6,51.1,29.68,SSW,202,7.4,7.4,98,0.00,,,0.00,VWS V14.01,2013-07-11 13:28:00,
2013-07-11 06:29:00,51.6,51.1,29.68,SW,225,2.5,2.5,98,0.00,,,0.00,VWS V14.01,2013-07-11 13:29:00,
2013-07-11 06:30:00,51.6,51.1,29.68,SSW,202,4.9,4.9,98,0.00,,,0.00,VWS V14.01,2013-07-11 13:30:00,
2013-07-11 06:31:00,51.8,51.3,29.68,SW,225,3.1,3.1,98,0.00,,,0.00,VWS V14.01,2013-07-11 13:31:00,
2013-07-11 06:32:00,51.8,51.3,29.68,SW,225,3.1,3.1,98,0.00,,,0.00,VWS V14.01,2013-07-11 13:32:00,
2013-07-11 06:33:00,51.8,51.3,29.68,West,270,3.6,3.6,98,0.00,,,0.00,VWS V14.01,2013-07-11 13:33:00,
2013-07-11 06:34:00,51.8,51.3,29.68,West,270,3.6,3.6,98,0.00,,,0.00,VWS V14.01,2013-07-11 13:34:00,
2013-07-11 06:35:00,51.8,51.3,29.68,SW,225,2.0,2.0,98,0.00,,,0.00,VWS V14.01,2013-07-11 13:35:00,
2013-07-11 06:36:00,52.0,51.4,29.68,SSW,202,2.7,2.7,98,0.00,,,0.00,VWS V14.01,2013-07-11 13:36:00,
2013-07-11 06:37:00,52.0,51.4,29.68,SSW,202,2.7,2.7,98,0.00,,,0.00,VWS V14.01,2013-07-11 13:37:00,
2013-07-11 06:38:00,52.0,51.4,29.68,SW,225,4.3,4.3,98,0.00,,,0.00,VWS V14.01,2013-07-11 13:38:00,
2013-07-11 06:39:00,52.0,51.4,29.68,WSW,248,3.1,3.1,98,0.00,,,0.00,VWS V14.01,2013-07-11 13:39:00,
2013-07-11 06:40:00,52.0,51.4,29.68,West,270,1.6,1.6,98,0.00,,,0.00,VWS V14.01,2013-07-11 13:40:00,
2013-07-11 06:41:00,52.0,51.4,29.68,WSW,248,2.9,2.9,98,0.00,,,0.00,VWS V14.01,2013-07-11 13:41:00,
2013-07-11 06:42:00,52.0,51.4,29.68,WSW,248,2.9,2.9,98,0.00,,,0.00,VWS V14.01,2013-07-11 13:42:00,
2013-07-11 06:44:00,52.0,51.4,29.68,WSW,248,9.6,9.6,98,0.00,,,0.00,VWS V14.01,2013-07-11 13:44:00,
2013-07-11 06:45:00,52.0,51.4,29.68,WSW,248,8.5,8.5,98,0.00,,,0.00,VWS V14.01,2013-07-11 13:45:00,
2013-07-11 06:46:00,52.0,51.4,29.68,WSW,248,1.3,1.3,98,0.00,,,0.00,VWS V14.01,2013-07-11 13:46:00,
2013-07-11 06:47:00,52.0,51.4,29.68,WSW,248,1.3,1.3,98,0.00,,,0.00,VWS V14.01,2013-07-11 13:47:00,
2013-07-11 06:49:00,52.0,51.4,29.68,SW,225,6.3,6.3,98,0.00,,,0.00,VWS V14.01,2013-07-11 13:49:00,
2013-07-11 06:50:00,52.0,51.4,29.68,WSW,248,2.7,2.7,98,0.00,,,0.00,VWS V14.01,2013-07-11 13:50:00,
2013-07-11 06:51:00,52.2,51.6,29.68,SW,225,9.6,9.6,98,0.00,,,0.00,VWS V14.01,2013-07-11 13:51:00,
2013-07-11 06:52:00,52.2,51.6,29.68,SW,225,9.6,9.6,98,0.00,,,0.00,VWS V14.01,2013-07-11 13:52:00,
2013-07-11 06:54:00,52.2,51.6,29.68,NW,315,1.6,1.6,98,0.00,,,0.00,VWS V14.01,2013-07-11 13:54:00,
2013-07-11 06:55:00,52.2,51.6,29.68,WSW,248,6.3,6.3,98,0.00,,,0.00,VWS V14.01,2013-07-11 13:55:00,
2013-07-11 06:56:00,52.3,51.8,29.68,WSW,248,7.8,7.8,98,0.00,,,0.00,VWS V14.01,2013-07-11 13:56:00,
2013-07-11 06:57:00,52.3,51.8,29.68,West,270,6.5,6.5,98,0.00,,,0.00,VWS V14.01,2013-07-11 13:57:00,
2013-07-11 06:58:00,52.3,51.8,29.68,SW,225,8.5,8.5,98,0.00,,,0.00,VWS V14.01,2013-07-11 13:58:00,
2013-07-11 06:59:00,52.3,51.8,29.68,West,270,5.4,5.4,98,0.00,,,0.00,VWS V14.01,2013-07-11 13:59:00,
2013-07-11 07:00:00,52.3,51.8,29.68,WSW,248,4.0,4.0,98,0.00,,,0.00,VWS V14.01,2013-07-11 14:00:00,
2013-07-11 07:01:00,52.3,51.8,29.68,West,270,4.3,4.3,98,0.00,,,0.00,VWS V14.01,2013-07-11 14:01:00,
2013-07-11 07:02:00,52.3,51.8,29.68,SSW,202,3.4,3.4,98,0.00,,,0.00,VWS V14.01,2013-07-11 14:02:00,
2013-07-11 07:03:00,52.3,51.8,29.68,WNW,292,4.9,4.9,98,0.00,,,0.00,VWS V14.01,2013-07-11 14:03:00,
2013-07-11 07:05:00,52.3,51.8,29.68,West,270,8.7,8.7,98,0.00,,,0.00,VWS V14.01,2013-07-11 14:05:00,
2013-07-11 07:07:00,52.3,51.8,29.68,West,270,8.7,8.7,98,0.00,,,0.00,VWS V14.01,2013-07-11 14:07:00,
2013-07-11 07:08:00,52.3,51.8,29.68,SSW,202,3.1,3.1,98,0.00,,,0.00,VWS V14.01,2013-07-11 14:08:00,
2013-07-11 07:09:00,52.2,51.6,29.68,West,270,7.4,7.4,98,0.00,,,0.00,VWS V14.01,2013-07-11 14:09:00,
2013-07-11 07:10:00,52.3,51.8,29.68,WSW,248,5.6,5.6,98,0.00,,,0.00,VWS V14.01,2013-07-11 14:10:00,
2013-07-11 07:11:00,52.3,51.8,29.68,SSW,202,5.6,5.6,98,0.00,,,0.00,VWS V14.01,2013-07-11 14:11:00,
2013-07-11 07:12:00,52.3,51.8,29.68,WSW,248,4.3,4.3,98,0.00,,,0.00,VWS V14.01,2013-07-11 14:12:00,
2013-07-11 07:13:00,52.3,51.8,29.68,WNW,292,2.9,2.9,98,0.00,,,0.00,VWS V14.01,2013-07-11 14:13:00,
2013-07-11 07:14:00,52.3,51.8,29.68,WSW,248,2.7,2.7,98,0.00,,,0.00,VWS V14.01,2013-07-11 14:14:00,
2013-07-11 07:15:00,52.3,51.8,29.68,WSW,248,3.6,3.6,98,0.00,,,0.00,VWS V14.01,2013-07-11 14:15:00,
2013-07-11 07:16:00,52.3,51.8,29.68,SSW,202,5.4,5.4,98,0.00,,,0.00,VWS V14.01,2013-07-11 14:16:00,
2013-07-11 07:17:00,52.3,51.8,29.68,SSW,202,4.9,4.9,98,0.00,,,0.00,VWS V14.01,2013-07-11 14:17:00,
2013-07-11 07:18:00,52.3,51.8,29.68,WNW,292,13.2,13.2,98,0.00,,,0.00,VWS V14.01,2013-07-11 14:18:00,
2013-07-11 07:19:00,52.3,51.8,29.68,WSW,248,10.3,10.3,98,0.00,,,0.00,VWS V14.01,2013-07-11 14:19:00,
2013-07-11 07:20:00,52.3,51.8,29.68,WSW,248,6.5,6.5,98,0.00,,,0.00,VWS V14.01,2013-07-11 14:20:00,
2013-07-11 07:21:00,52.3,51.8,29.68,SW,225,6.9,6.9,98,0.00,,,0.00,VWS V14.01,2013-07-11 14:21:00,
2013-07-11 07:22:00,52.3,51.8,29.68,WSW,248,6.3,6.3,98,0.00,,,0.00,VWS V14.01,2013-07-11 14:22:00,
2013-07-11 07:23:00,52.3,51.8,29.68,SSW,202,6.0,6.0,98,0.00,,,0.00,VWS V14.01,2013-07-11 14:23:00,
2013-07-11 07:24:00,52.3,51.8,29.68,West,270,8.1,8.1,98,0.00,,,0.00,VWS V14.01,2013-07-11 14:24:00,
2013-07-11 07:25:00,52.3,51.8,29.68,WSW,248,14.1,14.1,98,0.00,,,0.00,VWS V14.01,2013-07-11 14:25:00,
2013-07-11 07:26:00,52.2,51.6,29.68,WSW,248,14.1,14.1,98,0.00,,,0.00,VWS V14.01,2013-07-11 14:26:00,
2013-07-11 07:27:00,52.2,51.6,29.68,WSW,248,5.8,5.8,98,0.00,,,0.00,VWS V14.01,2013-07-11 14:27:00,
2013-07-11 07:28:00,52.2,51.6,29.68,WSW,248,5.8,5.8,98,0.00,,,0.00,VWS V14.01,2013-07-11 14:28:00,
2013-07-11 07:29:00,52.2,51.6,29.68,WSW,248,6.3,6.3,98,0.00,,,0.00,VWS V14.01,2013-07-11 14:29:00,
2013-07-11 07:30:00,52.2,51.6,29.68,WSW,248,6.3,6.3,98,0.00,,,0.00,VWS V14.01,2013-07-11 14:30:00,
2013-07-11 07:31:00,52.2,51.6,29.68,SW,225,7.4,7.4,98,0.00,,,0.00,VWS V14.01,2013-07-11 14:31:00,
2013-07-11 07:32:00,52.2,51.6,29.68,WSW,248,4.9,4.9,98,0.00,,,0.00,VWS V14.01,2013-07-11 14:32:00,
2013-07-11 07:33:00,52.2,51.6,29.68,WSW,248,4.9,4.9,98,0.00,,,0.00,VWS V14.01,2013-07-11 14:33:00,
2013-07-11 07:34:00,52.2,51.6,29.68,SW,225,2.7,2.7,98,0.00,,,0.00,VWS V14.01,2013-07-11 14:34:00,
2013-07-11 07:35:00,52.3,51.8,29.68,SW,225,3.1,3.1,98,0.00,,,0.00,VWS V14.01,2013-07-11 14:35:00,
2013-07-11 07:36:00,52.3,51.8,29.68,SSW,202,2.7,2.7,98,0.00,,,0.00,VWS V14.01,2013-07-11 14:36:00,
2013-07-11 07:37:00,52.3,51.8,29.68,WNW,292,2.5,2.5,98,0.00,,,0.00,VWS V14.01,2013-07-11 14:37:00,
2013-07-11 07:38:00,52.3,51.8,29.68,WSW,248,5.6,5.6,98,0.00,,,0.00,VWS V14.01,2013-07-11 14:38:00,
2013-07-11 07:39:00,52.3,51.8,29.68,West,270,2.2,2.2,98,0.00,,,0.00,VWS V14.01,2013-07-11 14:39:00,
2013-07-11 07:40:00,52.3,51.8,29.68,SSW,202,5.4,5.4,98,0.00,,,0.00,VWS V14.01,2013-07-11 14:40:00,
2013-07-11 07:41:00,52.3,51.8,29.68,SSW,202,5.4,5.4,98,0.00,,,0.00,VWS V14.01,2013-07-11 14:41:00,
2013-07-11 07:42:00,52.5,52.0,29.68,South,180,5.4,5.4,98,0.00,,,0.00,VWS V14.01,2013-07-11 14:42:00,
2013-07-11 07:43:00,52.5,52.0,29.68,South,180,5.4,5.4,98,0.00,,,0.00,VWS V14.01,2013-07-11 14:43:00,
2013-07-11 07:44:00,52.7,52.2,29.68,South,180,5.4,5.4,98,0.00,,,0.00,VWS V14.01,2013-07-11 14:44:00,
2013-07-11 07:45:00,52.7,52.2,29.68,South,180,5.4,5.4,98,0.00,,,0.00,VWS V14.01,2013-07-11 14:45:00,
2013-07-11 07:46:00,52.5,52.0,29.68,South,180,5.4,5.4,98,0.00,,,0.00,VWS V14.01,2013-07-11 14:46:00,
2013-07-11 07:47:00,52.5,52.0,29.68,WSW,248,5.4,5.4,98,0.00,,,0.00,VWS V14.01,2013-07-11 14:47:00,
2013-07-11 07:49:00,52.5,52.0,29.68,SW,225,2.9,2.9,98,0.00,,,0.00,VWS V14.01,2013-07-11 14:49:00,
2013-07-11 07:50:00,52.5,52.0,29.68,NW,315,6.9,6.9,98,0.00,,,0.00,VWS V14.01,2013-07-11 14:50:00,
2013-07-11 07:51:00,52.7,52.2,29.68,South,180,3.4,3.4,98,0.00,,,0.00,VWS V14.01,2013-07-11 14:51:00,
2013-07-11 07:52:00,52.7,52.2,29.68,South,180,3.4,3.4,98,0.00,,,0.00,VWS V14.01,2013-07-11 14:52:00,
2013-07-11 07:53:00,52.7,52.2,29.68,SW,225,6.0,6.0,98,0.00,,,0.00,VWS V14.01,2013-07-11 14:53:00,
2013-07-11 07:54:00,52.7,52.2,29.68,SW,225,5.4,5.4,98,0.00,,,0.00,VWS V14.01,2013-07-11 14:54:00,
2013-07-11 07:55:00,52.7,52.2,29.68,West,270,3.6,3.6,98,0.00,,,0.00,VWS V14.01,2013-07-11 14:55:00,
2013-07-11 07:57:00,52.9,52.3,29.68,WSW,248,6.0,6.0,98,0.00,,,0.00,VWS V14.01,2013-07-11 14:57:00,
2013-07-11 07:59:00,52.9,52.3,29.68,WSW,248,5.6,5.6,98,0.00,,,0.00,VWS V14.01,2013-07-11 14:59:00,
2013-07-11 08:00:00,52.7,52.2,29.68,WSW,248,8.1,8.1,98,0.00,,,0.00,VWS V14.01,2013-07-11 15:00:00,
2013-07-11 08:01:00,52.7,52.2,29.68,WNW,292,8.7,8.7,98,0.00,,,0.00,VWS V14.01,2013-07-11 15:01:00,
2013-07-11 08:02:00,52.7,52.2,29.68,WSW,248,5.6,5.6,98,0.00,,,0.00,VWS V14.01,2013-07-11 15:02:00,
2013-07-11 08:03:00,52.7,52.2,29.68,WSW,248,11.0,11.0,98,0.00,,,0.00,VWS V14.01,2013-07-11 15:03:00,
2013-07-11 08:05:00,52.7,52.2,29.68,SSW,202,4.7,4.7,98,0.00,,,0.00,VWS V14.01,2013-07-11 15:05:00,
2013-07-11 08:06:00,52.7,52.2,29.68,SSW,202,4.7,4.7,98,0.00,,,0.00,VWS V14.01,2013-07-11 15:06:00,
2013-07-11 08:07:00,52.5,52.0,29.68,SSW,202,6.5,6.5,98,0.00,,,0.00,VWS V14.01,2013-07-11 15:07:00,
2013-07-11 08:08:00,52.5,52.0,29.68,SSW,202,6.5,6.5,98,0.00,,,0.00,VWS V14.01,2013-07-11 15:08:00,
2013-07-11 08:09:00,52.5,52.0,29.68,SSW,202,6.5,6.5,98,0.00,,,0.00,VWS V14.01,2013-07-11 15:09:00,
2013-07-11 08:10:00,52.5,52.0,29.68,SSW,202,6.5,6.5,98,0.00,,,0.00,VWS V14.01,2013-07-11 15:10:00,
2013-07-11 08:11:00,52.5,52.0,29.68,SSW,202,6.5,6.5,98,0.00,,,0.00,VWS V14.01,2013-07-11 15:11:00,
2013-07-11 08:12:00,52.5,52.0,29.68,SSW,202,6.5,6.5,98,0.00,,,0.00,VWS V14.01,2013-07-11 15:12:00,
2013-07-11 08:13:00,52.5,52.0,29.68,SSW,202,6.5,6.5,98,0.00,,,0.00,VWS V14.01,2013-07-11 15:13:00,
2013-07-11 08:15:00,52.5,52.0,29.68,WSW,248,3.4,3.4,98,0.00,,,0.00,VWS V14.01,2013-07-11 15:15:00,
2013-07-11 08:16:00,52.7,52.2,29.68,WSW,248,8.5,8.5,98,0.00,,,0.00,VWS V14.01,2013-07-11 15:16:00,
2013-07-11 08:17:00,52.7,52.2,29.68,SW,225,8.1,8.1,98,0.00,,,0.00,VWS V14.01,2013-07-11 15:17:00,
2013-07-11 08:18:00,52.7,52.2,29.68,SW,225,5.8,5.8,98,0.00,,,0.00,VWS V14.01,2013-07-11 15:18:00,
2013-07-11 08:19:00,52.7,52.2,29.68,West,270,7.6,7.6,98,0.00,,,0.00,VWS V14.01,2013-07-11 15:19:00,
2013-07-11 08:20:00,52.7,52.2,29.68,WSW,248,7.2,7.2,98,0.00,,,0.00,VWS V14.01,2013-07-11 15:20:00,
2013-07-11 08:21:00,52.7,52.2,29.68,WSW,248,7.2,7.2,98,0.00,,,0.00,VWS V14.01,2013-07-11 15:21:00,
2013-07-11 08:22:00,52.7,52.2,29.68,WSW,248,7.2,7.2,98,0.00,,,0.00,VWS V14.01,2013-07-11 15:22:00,
2013-07-11 08:23:00,52.9,52.3,29.68,WSW,248,7.6,7.6,98,0.00,,,0.00,VWS V14.01,2013-07-11 15:23:00,
2013-07-11 08:24:00,52.9,52.3,29.68,SW,225,4.9,4.9,98,0.00,,,0.00,VWS V14.01,2013-07-11 15:24:00,
2013-07-11 08:26:00,52.9,52.3,29.68,SW,225,4.9,4.9,98,0.00,,,0.00,VWS V14.01,2013-07-11 15:26:00,
2013-07-11 08:27:00,52.9,52.3,29.68,SW,225,4.9,4.9,98,0.00,,,0.00,VWS V14.01,2013-07-11 15:27:00,
2013-07-11 08:28:00,52.9,52.3,29.68,SW,225,4.9,4.9,98,0.00,,,0.00,VWS V14.01,2013-07-11 15:28:00,
2013-07-11 08:29:00,52.9,52.3,29.68,SW,225,4.9,4.9,98,0.00,,,0.00,VWS V14.01,2013-07-11 15:29:00,
2013-07-11 08:30:00,52.9,52.3,29.68,SW,225,4.9,4.9,98,0.00,,,0.00,VWS V14.01,2013-07-11 15:30:00,
2013-07-11 08:32:00,52.9,52.3,29.68,WSW,248,10.3,10.3,98,0.00,,,0.00,VWS V14.01,2013-07-11 15:32:00,
2013-07-11 08:33:00,53.1,52.5,29.68,WSW,248,7.6,7.6,98,0.00,,,0.00,VWS V14.01,2013-07-11 15:33:00,
2013-07-11 08:34:00,53.1,52.5,29.68,WNW,292,6.3,6.3,98,0.00,,,0.00,VWS V14.01,2013-07-11 15:34:00,
2013-07-11 08:35:00,53.1,52.5,29.68,WSW,248,10.7,10.7,98,0.00,,,0.00,VWS V14.01,2013-07-11 15:35:00,
2013-07-11 08:36:00,53.1,52.5,29.68,WNW,292,4.3,4.3,98,0.00,,,0.00,VWS V14.01,2013-07-11 15:36:00,
2013-07-11 08:37:00,53.1,52.5,29.68,WSW,248,13.0,13.0,98,0.00,,,0.00,VWS V14.01,2013-07-11 15:37:00,
2013-07-11 08:38:00,53.1,52.5,29.68,WSW,248,13.0,13.0,98,0.00,,,0.00,VWS V14.01,2013-07-11 15:38:00,
2013-07-11 08:39:00,53.1,52.5,29.68,NW,315,3.8,3.8,98,0.00,,,0.00,VWS V14.01,2013-07-11 15:39:00,
2013-07-11 08:40:00,53.1,52.5,29.68,NW,315,3.8,3.8,98,0.00,,,0.00,VWS V14.01,2013-07-11 15:40:00,
2013-07-11 08:41:00,53.1,52.5,29.68,NW,315,3.8,3.8,98,0.00,,,0.00,VWS V14.01,2013-07-11 15:41:00,
2013-07-11 08:42:00,53.1,52.5,29.68,WSW,248,10.5,10.5,98,0.00,,,0.00,VWS V14.01,2013-07-11 15:42:00,
2013-07-11 08:43:00,53.2,52.7,29.68,SSE,158,2.9,2.9,98,0.00,,,0.00,VWS V14.01,2013-07-11 15:43:00,
2013-07-11 08:44:00,53.2,52.7,29.68,SSE,158,2.9,2.9,98,0.00,,,0.00,VWS V14.01,2013-07-11 15:44:00,
2013-07-11 08:45:00,53.2,52.7,29.68,WSW,248,2.0,2.0,98,0.00,,,0.00,VWS V14.01,2013-07-11 15:45:00,
2013-07-11 08:46:00,53.2,52.7,29.68,WSW,248,6.3,6.3,98,0.00,,,0.00,VWS V14.01,2013-07-11 15:46:00,
2013-07-11 08:47:00,53.2,52.7,29.68,WSW,248,6.3,6.3,98,0.00,,,0.00,VWS V14.01,2013-07-11 15:47:00,
2013-07-11 08:48:00,53.2,52.7,29.68,WSW,248,6.3,6.3,98,0.00,,,0.00,VWS V14.01,2013-07-11 15:48:00,
2013-07-11 08:49:00,53.2,52.7,29.68,WSW,248,5.4,5.4,98,0.00,,,0.00,VWS V14.01,2013-07-11 15:49:00,
2013-07-11 08:50:00,53.2,52.7,29.68,WSW,248,5.4,5.4,98,0.00,,,0.00,VWS V14.01,2013-07-11 15:50:00,
2013-07-11 08:51:00,53.2,52.7,29.68,SW,225,8.1,8.1,98,0.00,,,0.00,VWS V14.01,2013-07-11 15:51:00,
2013-07-11 08:53:00,53.2,52.7,29.68,SSW,202,10.1,10.1,98,0.00,,,0.00,VWS V14.01,2013-07-11 15:53:00,
2013-07-11 08:55:00,53.2,52.7,29.68,WSW,248,5.8,5.8,98,0.00,,,0.00,VWS V14.01,2013-07-11 15:55:00,
2013-07-11 08:56:00,53.2,52.7,29.68,SSW,202,3.1,3.1,98,0.00,,,0.00,VWS V14.01,2013-07-11 15:56:00,
2013-07-11 08:57:00,53.2,52.7,29.68,SW,225,4.3,4.3,98,0.00,,,0.00,VWS V14.01,2013-07-11 15:57:00,
2013-07-11 08:58:00,53.2,52.7,29.68,WSW,248,10.1,10.1,98,0.00,,,0.00,VWS V14.01,2013-07-11 15:58:00,
2013-07-11 08:59:00,53.2,52.7,29.68,WSW,248,10.1,10.1,98,0.00,,,0.00,VWS V14.01,2013-07-11 15:59:00,
2013-07-11 09:00:00,53.2,52.7,29.68,WNW,292,6.3,6.3,98,0.00,,,0.00,VWS V14.01,2013-07-11 16:00:00,
2013-07-11 09:01:00,53.2,52.7,29.68,WNW,292,6.3,6.3,98,0.00,,,0.00,VWS V14.01,2013-07-11 16:01:00,
2013-07-11 09:03:00,53.1,52.5,29.68,WSW,248,8.1,8.1,98,0.00,,,0.00,VWS V14.01,2013-07-11 16:03:00,
2013-07-11 09:04:00,53.1,52.5,29.68,WSW,248,8.1,8.1,98,0.00,,,0.00,VWS V14.01,2013-07-11 16:04:00,
2013-07-11 09:05:00,53.1,52.5,29.68,West,270,8.7,8.7,98,0.00,,,0.00,VWS V14.01,2013-07-11 16:05:00,
2013-07-11 09:06:00,53.1,52.5,29.68,NNW,338,8.1,8.1,98,0.00,,,0.00,VWS V14.01,2013-07-11 16:06:00,
2013-07-11 09:07:00,53.1,52.5,29.68,WSW,248,6.0,6.0,98,0.00,,,0.00,VWS V14.01,2013-07-11 16:07:00,
2013-07-11 09:08:00,53.1,52.5,29.68,SW,225,10.5,10.5,98,0.00,,,0.00,VWS V14.01,2013-07-11 16:08:00,
2013-07-11 09:09:00,53.1,52.5,29.68,SW,225,10.5,10.5,98,0.00,,,0.00,VWS V14.01,2013-07-11 16:09:00,
2013-07-11 09:10:00,53.1,52.5,29.68,SW,225,10.5,10.5,98,0.00,,,0.00,VWS V14.01,2013-07-11 16:10:00,
2013-07-11 09:11:00,53.1,52.5,29.68,WSW,248,15.2,15.2,98,0.00,,,0.00,VWS V14.01,2013-07-11 16:11:00,
2013-07-11 09:12:00,53.1,52.5,29.68,WSW,248,3.8,3.8,98,0.00,,,0.00,VWS V14.01,2013-07-11 16:12:00,
2013-07-11 09:13:00,53.1,52.5,29.68,WSW,248,8.5,8.5,98,0.00,,,0.00,VWS V14.01,2013-07-11 16:13:00,
2013-07-11 09:16:00,53.1,52.5,29.68,SW,225,5.4,5.4,98,0.00,,,0.00,VWS V14.01,2013-07-11 16:16:00,
2013-07-11 09:17:00,53.1,52.5,29.68,SSW,202,6.0,6.0,98,0.00,,,0.00,VWS V14.01,2013-07-11 16:17:00,
2013-07-11 09:18:00,53.1,52.5,29.68,SSW,202,6.0,6.0,98,0.00,,,0.00,VWS V14.01,2013-07-11 16:18:00,
2013-07-11 09:19:00,53.1,52.5,29.68,WSW,248,6.5,6.5,98,0.00,,,0.00,VWS V14.01,2013-07-11 16:19:00,
2013-07-11 09:20:00,53.1,52.5,29.68,WSW,248,6.5,6.5,98,0.00,,,0.00,VWS V14.01,2013-07-11 16:20:00,
2013-07-11 09:21:00,53.2,52.7,29.68,WSW,248,6.9,6.9,98,0.00,,,0.00,VWS V14.01,2013-07-11 16:21:00,
2013-07-11 09:22:00,53.2,52.7,29.68,West,270,8.1,8.1,98,0.00,,,0.00,VWS V14.01,2013-07-11 16:22:00,
2013-07-11 09:23:00,53.2,52.7,29.68,SW,225,7.4,7.4,98,0.00,,,0.00,VWS V14.01,2013-07-11 16:23:00,
2013-07-11 09:24:00,53.2,52.7,29.68,NNW,338,2.0,2.0,98,0.00,,,0.00,VWS V14.01,2013-07-11 16:24:00,
2013-07-11 09:25:00,53.2,52.7,29.68,NNW,338,2.0,2.0,98,0.00,,,0.00,VWS V14.01,2013-07-11 16:25:00,
2013-07-11 09:27:00,53.4,52.9,29.68,SW,225,7.6,7.6,98,0.00,,,0.00,VWS V14.01,2013-07-11 16:27:00,
2013-07-11 09:29:00,53.4,52.9,29.68,SW,225,6.3,6.3,98,0.00,,,0.00,VWS V14.01,2013-07-11 16:29:00,
2013-07-11 09:31:00,53.4,52.9,29.68,SW,225,4.9,4.9,98,0.00,,,0.00,VWS V14.01,2013-07-11 16:31:00,
2013-07-11 09:32:00,53.4,52.9,29.68,SW,225,4.9,4.9,98,0.00,,,0.00,VWS V14.01,2013-07-11 16:32:00,
2013-07-11 09:33:00,53.4,52.9,29.68,WSW,248,6.5,6.5,98,0.00,,,0.00,VWS V14.01,2013-07-11 16:33:00,
2013-07-11 09:34:00,53.4,52.9,29.68,WSW,248,7.2,7.2,98,0.00,,,0.00,VWS V14.01,2013-07-11 16:34:00,
2013-07-11 09:35:00,53.4,52.9,29.68,SSW,202,8.1,8.1,98,0.00,,,0.00,VWS V14.01,2013-07-11 16:35:00,
2013-07-11 09:36:00,53.4,52.9,29.68,SSW,202,8.1,8.1,98,0.00,,,0.00,VWS V14.01,2013-07-11 16:36:00,
2013-07-11 09:37:00,53.4,52.9,29.68,SW,225,7.6,7.6,98,0.00,,,0.00,VWS V14.01,2013-07-11 16:37:00,
2013-07-11 09:38:00,53.4,52.9,29.68,SW,225,7.6,7.6,98,0.00,,,0.00,VWS V14.01,2013-07-11 16:38:00,
2013-07-11 09:39:00,53.4,52.9,29.71,SW,225,7.6,7.6,98,0.00,,,0.00,VWS V14.01,2013-07-11 16:39:00,
2013-07-11 09:40:00,53.4,52.9,29.71,SW,225,7.6,7.6,98,0.00,,,0.00,VWS V14.01,2013-07-11 16:40:00,
2013-07-11 09:42:00,53.4,52.9,29.71,SSW,202,7.6,7.6,98,0.00,,,0.00,VWS V14.01,2013-07-11 16:42:00,
2013-07-11 09:43:00,53.4,52.9,29.71,SSW,202,7.6,7.6,98,0.00,,,0.00,VWS V14.01,2013-07-11 16:43:00,
2013-07-11 09:44:00,53.6,53.0,29.71,WNW,292,3.6,3.6,98,0.00,,,0.00,VWS V14.01,2013-07-11 16:44:00,
2013-07-11 09:47:00,53.8,53.2,29.71,SW,225,0.9,0.9,98,0.00,,,0.00,VWS V14.01,2013-07-11 16:47:00,
2013-07-11 09:49:00,53.8,53.2,29.71,SW,225,6.5,6.5,98,0.00,,,0.00,VWS V14.01,2013-07-11 16:49:00,
2013-07-11 09:50:00,53.8,53.2,29.71,SSW,202,8.1,8.1,98,0.00,,,0.00,VWS V14.01,2013-07-11 16:50:00,
2013-07-11 09:51:00,53.8,53.2,29.71,SW,225,10.1,10.1,98,0.00,,,0.00,VWS V14.01,2013-07-11 16:51:00,
2013-07-11 09:52:00,53.8,53.2,29.71,WSW,248,10.7,10.7,98,0.00,,,0.00,VWS V14.01,2013-07-11 16:52:00,
2013-07-11 09:53:00,53.6,53.0,29.71,SW,225,10.7,10.7,98,0.00,,,0.00,VWS V14.01,2013-07-11 16:53:00,
2013-07-11 09:54:00,53.6,53.0,29.68,WSW,248,10.7,10.7,98,0.00,,,0.00,VWS V14.01,2013-07-11 16:54:00,
2013-07-11 09:55:00,53.6,53.0,29.68,WSW,248,10.7,10.7,98,0.00,,,0.00,VWS V14.01,2013-07-11 16:55:00,
2013-07-11 09:56:00,53.8,53.2,29.68,SW,225,8.5,8.5,98,0.00,,,0.00,VWS V14.01,2013-07-11 16:56:00,
2013-07-11 09:57:00,53.8,53.2,29.68,WNW,292,7.6,7.6,98,0.00,,,0.00,VWS V14.01,2013-07-11 16:57:00,
2013-07-11 09:59:00,53.8,53.2,29.68,SW,225,3.6,3.6,98,0.00,,,0.00,VWS V14.01,2013-07-11 16:59:00,
2013-07-11 10:02:00,54.0,53.4,29.68,West,270,6.5,6.5,98,0.00,,,0.00,VWS V14.01,2013-07-11 17:02:00,
2013-07-11 10:03:00,54.1,53.6,29.68,WSW,248,5.6,5.6,98,0.00,,,0.00,VWS V14.01,2013-07-11 17:03:00,
2013-07-11 10:04:00,54.1,53.6,29.68,WNW,292,8.7,8.7,98,0.00,,,0.00,VWS V14.01,2013-07-11 17:04:00,
2013-07-11 10:06:00,54.1,53.6,29.68,WNW,292,8.7,8.7,98,0.00,,,0.00,VWS V14.01,2013-07-11 17:06:00,
2013-07-11 10:07:00,54.1,53.6,29.68,WSW,248,10.5,10.5,98,0.00,,,0.00,VWS V14.01,2013-07-11 17:07:00,
2013-07-11 10:08:00,54.1,53.6,29.68,SW,225,8.5,8.5,98,0.00,,,0.00,VWS V14.01,2013-07-11 17:08:00,
2013-07-11 10:09:00,54.0,53.4,29.68,WSW,248,10.1,10.1,98,0.00,,,0.00,VWS V14.01,2013-07-11 17:09:00,
2013-07-11 10:10:00,54.0,53.4,29.68,WSW,248,10.1,10.1,98,0.00,,,0.00,VWS V14.01,2013-07-11 17:10:00,
2013-07-11 10:12:00,54.1,53.6,29.68,West,270,6.5,6.5,98,0.00,,,0.00,VWS V14.01,2013-07-11 17:12:00,
2013-07-11 10:13:00,54.1,53.6,29.68,WSW,248,11.0,11.0,98,0.00,,,0.00,VWS V14.01,2013-07-11 17:13:00,
2013-07-11 10:14:00,54.1,53.6,29.68,SSW,202,4.7,4.7,98,0.00,,,0.00,VWS V14.01,2013-07-11 17:14:00,
2013-07-11 10:15:00,54.1,53.6,29.68,SSW,202,4.7,4.7,98,0.00,,,0.00,VWS V14.01,2013-07-11 17:15:00,
2013-07-11 10:16:00,54.1,53.3,29.68,NNW,338,7.4,7.4,97,0.00,,,0.00,VWS V14.01,2013-07-11 17:16:00,
2013-07-11 10:17:00,54.1,53.3,29.68,SSW,202,7.6,7.6,97,0.00,,,0.00,VWS V14.01,2013-07-11 17:17:00,
2013-07-11 10:18:00,54.1,53.3,29.68,West,270,8.1,8.1,97,0.00,,,0.00,VWS V14.01,2013-07-11 17:18:00,
2013-07-11 10:19:00,54.3,53.5,29.68,WNW,292,2.7,2.7,97,0.00,,,0.00,VWS V14.01,2013-07-11 17:19:00,
2013-07-11 10:20:00,54.3,53.5,29.68,WNW,292,2.7,2.7,97,0.00,,,0.00,VWS V14.01,2013-07-11 17:20:00,
2013-07-11 10:21:00,54.5,53.7,29.68,WSW,248,2.9,2.9,97,0.00,,,0.00,VWS V14.01,2013-07-11 17:21:00,
2013-07-11 10:22:00,54.5,53.7,29.68,SW,225,9.0,9.0,97,0.00,,,0.00,VWS V14.01,2013-07-11 17:22:00,
2013-07-11 10:24:00,54.5,53.7,29.68,WSW,248,13.0,13.0,97,0.00,,,0.00,VWS V14.01,2013-07-11 17:24:00,
2013-07-11 10:25:00,54.5,53.7,29.68,WSW,248,8.7,8.7,97,0.00,,,0.00,VWS V14.01,2013-07-11 17:25:00,
2013-07-11 10:26:00,54.5,53.7,29.68,SSW,202,10.5,10.5,97,0.00,,,0.00,VWS V14.01,2013-07-11 17:26:00,
2013-07-11 10:27:00,54.5,53.7,29.68,SW,225,6.3,6.3,97,0.00,,,0.00,VWS V14.01,2013-07-11 17:27:00,
2013-07-11 10:28:00,54.5,53.7,29.68,WSW,248,5.8,5.8,97,0.00,,,0.00,VWS V14.01,2013-07-11 17:28:00,
2013-07-11 10:29:00,54.5,53.7,29.68,WSW,248,8.1,8.1,97,0.00,,,0.00,VWS V14.01,2013-07-11 17:29:00,
2013-07-11 10:30:00,54.5,53.7,29.68,WSW,248,8.1,8.1,97,0.00,,,0.00,VWS V14.01,2013-07-11 17:30:00,
2013-07-11 10:31:00,54.5,53.7,29.68,NW,315,13.0,13.0,97,0.00,,,0.00,VWS V14.01,2013-07-11 17:31:00,
2013-07-11 10:32:00,54.5,53.7,29.68,WSW,248,7.8,7.8,97,0.00,,,0.00,VWS V14.01,2013-07-11 17:32:00,
2013-07-11 10:33:00,54.5,53.4,29.68,WSW,248,8.5,8.5,96,0.00,,,0.00,VWS V14.01,2013-07-11 17:33:00,
2013-07-11 10:34:00,54.5,53.4,29.68,SW,225,8.1,8.1,96,0.00,,,0.00,VWS V14.01,2013-07-11 17:34:00,
2013-07-11 10:35:00,54.7,53.8,29.68,SW,225,6.9,6.9,97,0.00,,,0.00,VWS V14.01,2013-07-11 17:35:00,
2013-07-11 10:36:00,54.7,53.8,29.68,SSW,202,6.5,6.5,97,0.00,,,0.00,VWS V14.01,2013-07-11 17:36:00,
2013-07-11 10:37:00,54.7,53.8,29.68,SW,225,5.8,5.8,97,0.00,,,0.00,VWS V14.01,2013-07-11 17:37:00,
2013-07-11 10:38:00,54.7,53.8,29.68,West,270,6.0,6.0,97,0.00,,,0.00,VWS V14.01,2013-07-11 17:38:00,
2013-07-11 10:39:00,54.9,53.7,29.68,WSW,248,3.6,3.6,96,0.00,,,0.00,VWS V14.01,2013-07-11 17:39:00,
2013-07-11 10:40:00,55.0,53.9,29.68,WSW,248,7.8,7.8,96,0.00,,,0.00,VWS V14.01,2013-07-11 17:40:00,
2013-07-11 10:41:00,55.0,53.9,29.68,SW,225,6.7,6.7,96,0.00,,,0.00,VWS V14.01,2013-07-11 17:41:00,
2013-07-11 10:42:00,54.9,53.7,29.68,West,270,11.0,11.0,96,0.00,,,0.00,VWS V14.01,2013-07-11 17:42:00,
2013-07-11 10:43:00,54.9,53.7,29.68,SW,225,10.3,10.3,96,0.00,,,0.00,VWS V14.01,2013-07-11 17:43:00,
2013-07-11 10:44:00,54.7,53.3,29.68,SSW,202,15.2,15.2,95,0.00,,,0.00,VWS V14.01,2013-07-11 17:44:00,
2013-07-11 10:45:00,54.7,53.3,29.68,South,180,3.1,3.1,95,0.00,,,0.00,VWS V14.01,2013-07-11 17:45:00,
2013-07-11 10:48:00,55.0,53.6,29.68,WSW,248,9.6,9.6,95,0.00,,,0.00,VWS V14.01,2013-07-11 17:48:00,
2013-07-11 10:49:00,54.9,53.5,29.68,SW,225,13.2,13.2,95,0.00,,,0.00,VWS V14.01,2013-07-11 17:49:00,
2013-07-11 10:50:00,54.9,53.5,29.68,WSW,248,14.8,14.8,95,0.00,,,0.00,VWS V14.01,2013-07-11 17:50:00,
2013-07-11 10:52:00,54.9,53.5,29.68,SW,225,6.3,6.3,95,0.00,,,0.00,VWS V14.01,2013-07-11 17:52:00,
2013-07-11 10:55:00,55.0,53.3,29.68,West,270,12.5,12.5,94,0.00,,,0.00,VWS V14.01,2013-07-11 17:55:00,
2013-07-11 10:57:00,55.2,53.5,29.68,WSW,248,6.5,6.5,94,0.00,,,0.00,VWS V14.01,2013-07-11 17:57:00,
2013-07-11 10:58:00,55.2,53.5,29.68,WNW,292,7.6,7.6,94,0.00,,,0.00,VWS V14.01,2013-07-11 17:58:00,
2013-07-11 10:59:00,55.2,53.5,29.68,SSW,202,3.1,3.1,94,0.00,,,0.00,VWS V14.01,2013-07-11 17:59:00,
2013-07-11 11:00:00,55.2,53.5,29.68,WSW,248,11.4,11.4,94,0.00,,,0.00,VWS V14.01,2013-07-11 18:00:00,
2013-07-11 11:01:00,55.2,53.5,29.68,WSW,248,11.4,11.4,94,0.00,,,0.00,VWS V14.01,2013-07-11 18:01:00,
2013-07-11 11:02:00,55.2,53.2,29.68,SW,225,6.3,6.3,93,0.00,,,0.00,VWS V14.01,2013-07-11 18:02:00,
2013-07-11 11:03:00,55.2,53.2,29.68,SW,225,6.3,6.3,93,0.00,,,0.00,VWS V14.01,2013-07-11 18:03:00,
2013-07-11 11:05:00,55.2,53.2,29.68,SW,225,12.1,12.1,93,0.00,,,0.00,VWS V14.01,2013-07-11 18:05:00,
2013-07-11 11:06:00,55.2,53.2,29.68,SW,225,12.1,12.1,93,0.00,,,0.00,VWS V14.01,2013-07-11 18:06:00,
2013-07-11 11:07:00,55.2,53.2,29.68,SW,225,12.1,12.1,93,0.00,,,0.00,VWS V14.01,2013-07-11 18:07:00,
2013-07-11 11:08:00,55.2,53.2,29.68,SW,225,12.1,12.1,93,0.00,,,0.00,VWS V14.01,2013-07-11 18:08:00,
2013-07-11 11:10:00,55.2,53.2,29.68,SW,225,12.1,12.1,93,0.00,,,0.00,VWS V14.01,2013-07-11 18:10:00,
2013-07-11 11:11:00,55.2,53.2,29.68,SW,225,12.1,12.1,93,0.00,,,0.00,VWS V14.01,2013-07-11 18:11:00,
2013-07-11 11:12:00,55.2,53.2,29.68,SW,225,12.1,12.1,93,0.00,,,0.00,VWS V14.01,2013-07-11 18:12:00,
2013-07-11 11:13:00,55.2,53.2,29.68,SW,225,12.1,12.1,93,0.00,,,0.00,VWS V14.01,2013-07-11 18:13:00,
2013-07-11 11:15:00,55.9,53.4,29.68,SSW,202,10.1,10.1,91,0.00,,,0.00,VWS V14.01,2013-07-11 18:15:00,
2013-07-11 11:17:00,55.9,53.4,29.68,WSW,248,10.7,10.7,91,0.00,,,0.00,VWS V14.01,2013-07-11 18:17:00,
2013-07-11 11:18:00,55.9,53.0,29.68,WNW,292,8.7,8.7,90,0.00,,,0.00,VWS V14.01,2013-07-11 18:18:00,
2013-07-11 11:19:00,55.9,53.0,29.68,WNW,292,8.7,8.7,90,0.00,,,0.00,VWS V14.01,2013-07-11 18:19:00,
2013-07-11 11:20:00,55.9,53.0,29.68,SW,225,12.8,12.8,90,0.00,,,0.00,VWS V14.01,2013-07-11 18:20:00,
2013-07-11 11:21:00,55.9,53.0,29.68,WSW,248,8.1,8.1,90,0.00,,,0.00,VWS V14.01,2013-07-11 18:21:00,
2013-07-11 11:22:00,55.9,53.0,29.68,WSW,248,8.1,8.1,90,0.00,,,0.00,VWS V14.01,2013-07-11 18:22:00,
2013-07-11 11:23:00,55.8,52.6,29.68,SSW,202,12.8,12.8,89,0.00,,,0.00,VWS V14.01,2013-07-11 18:23:00,
2013-07-11 11:25:00,55.8,52.6,29.68,SSW,202,8.5,8.5,89,0.00,,,0.00,VWS V14.01,2013-07-11 18:25:00,
2013-07-11 11:26:00,55.8,52.6,29.68,SSW,202,8.5,8.5,89,0.00,,,0.00,VWS V14.01,2013-07-11 18:26:00,
2013-07-11 11:27:00,55.8,52.6,29.68,WSW,248,17.5,17.5,89,0.00,,,0.00,VWS V14.01,2013-07-11 18:27:00,
2013-07-11 11:28:00,55.8,52.6,29.68,SW,225,15.2,15.2,89,0.00,,,0.00,VWS V14.01,2013-07-11 18:28:00,
2013-07-11 11:29:00,55.8,52.6,29.68,WSW,248,10.5,10.5,89,0.00,,,0.00,VWS V14.01,2013-07-11 18:29:00,
2013-07-11 11:30:00,55.8,52.6,29.68,WSW,248,14.8,14.8,89,0.00,,,0.00,VWS V14.01,2013-07-11 18:30:00,
2013-07-11 11:31:00,55.8,52.6,29.68,WSW,248,5.8,5.8,89,0.00,,,0.00,VWS V14.01,2013-07-11 18:31:00,
2013-07-11 11:32:00,55.8,52.6,29.68,WSW,248,12.1,12.1,89,0.00,,,0.00,VWS V14.01,2013-07-11 18:32:00,
2013-07-11 11:33:00,55.8,52.6,29.68,SW,225,14.3,14.3,89,0.00,,,0.00,VWS V14.01,2013-07-11 18:33:00,
2013-07-11 11:34:00,55.8,52.6,29.68,WSW,248,10.7,10.7,89,0.00,,,0.00,VWS V14.01,2013-07-11 18:34:00,
2013-07-11 11:35:00,55.8,52.6,29.68,WNW,292,6.3,6.3,89,0.00,,,0.00,VWS V14.01,2013-07-11 18:35:00,
2013-07-11 11:36:00,55.8,52.6,29.68,West,270,10.5,10.5,89,0.00,,,0.00,VWS V14.01,2013-07-11 18:36:00,
2013-07-11 11:37:00,56.1,52.9,29.68,WSW,248,7.2,7.2,89,0.00,,,0.00,VWS V14.01,2013-07-11 18:37:00,
2013-07-11 11:38:00,56.1,52.9,29.68,WSW,248,6.0,6.0,89,0.00,,,0.00,VWS V14.01,2013-07-11 18:38:00,
2013-07-11 11:39:00,56.1,52.9,29.68,WNW,292,10.5,10.5,89,0.00,,,0.00,VWS V14.01,2013-07-11 18:39:00,
2013-07-11 11:40:00,56.3,53.1,29.68,SW,225,9.0,9.0,89,0.00,,,0.00,VWS V14.01,2013-07-11 18:40:00,
2013-07-11 11:41:00,56.3,53.1,29.68,SW,225,9.0,9.0,89,0.00,,,0.00,VWS V14.01,2013-07-11 18:41:00,
2013-07-11 11:42:00,56.5,53.3,29.68,West,270,11.0,11.0,89,0.00,,,0.00,VWS V14.01,2013-07-11 18:42:00,
2013-07-11 11:43:00,56.5,53.3,29.68,WSW,248,9.6,9.6,89,0.00,,,0.00,VWS V14.01,2013-07-11 18:43:00,
2013-07-11 11:44:00,56.5,53.3,29.68,WSW,248,9.6,9.6,89,0.00,,,0.00,VWS V14.01,2013-07-11 18:44:00,
2013-07-11 11:45:00,56.5,53.0,29.68,WSW,248,6.3,6.3,88,0.00,,,0.00,VWS V14.01,2013-07-11 18:45:00,
2013-07-11 11:46:00,56.5,53.0,29.68,SSW,202,7.8,7.8,88,0.00,,,0.00,VWS V14.01,2013-07-11 18:46:00,
2013-07-11 11:47:00,56.5,53.0,29.68,WSW,248,14.3,14.3,88,0.00,,,0.00,VWS V14.01,2013-07-11 18:47:00,
2013-07-11 11:48:00,56.5,53.0,29.68,WSW,248,17.7,17.7,88,0.00,,,0.00,VWS V14.01,2013-07-11 18:48:00,
2013-07-11 11:49:00,56.5,53.0,29.68,WSW,248,8.1,8.1,88,0.00,,,0.00,VWS V14.01,2013-07-11 18:49:00,
2013-07-11 11:50:00,56.5,53.0,29.68,West,270,11.0,11.0,88,0.00,,,0.00,VWS V14.01,2013-07-11 18:50:00,
2013-07-11 11:51:00,56.5,53.0,29.68,WSW,248,15.2,15.2,88,0.00,,,0.00,VWS V14.01,2013-07-11 18:51:00,
2013-07-11 11:52:00,56.5,53.0,29.68,WSW,248,15.2,15.2,88,0.00,,,0.00,VWS V14.01,2013-07-11 18:52:00,
2013-07-11 11:53:00,56.5,52.7,29.68,West,270,6.5,6.5,87,0.00,,,0.00,VWS V14.01,2013-07-11 18:53:00,
2013-07-11 11:54:00,56.5,52.7,29.65,SSW,202,10.7,10.7,87,0.00,,,0.00,VWS V14.01,2013-07-11 18:54:00,
2013-07-11 11:55:00,56.5,52.7,29.65,WSW,248,11.0,11.0,87,0.00,,,0.00,VWS V14.01,2013-07-11 18:55:00,
2013-07-11 11:56:00,56.5,52.7,29.65,WSW,248,12.5,12.5,87,0.00,,,0.00,VWS V14.01,2013-07-11 18:56:00,
2013-07-11 11:57:00,56.5,52.7,29.65,WSW,248,10.7,10.7,87,0.00,,,0.00,VWS V14.01,2013-07-11 18:57:00,
2013-07-11 11:58:00,56.5,52.7,29.65,SW,225,14.3,14.3,87,0.00,,,0.00,VWS V14.01,2013-07-11 18:58:00,
2013-07-11 11:59:00,56.5,52.7,29.65,West,270,14.8,14.8,87,0.00,,,0.00,VWS V14.01,2013-07-11 18:59:00,
2013-07-11 12:00:00,56.5,52.3,29.65,West,270,14.8,14.8,86,0.00,,,0.00,VWS V14.01,2013-07-11 19:00:00,
2013-07-11 12:01:00,56.5,52.3,29.65,West,270,14.8,14.8,86,0.00,,,0.00,VWS V14.01,2013-07-11 19:01:00,
2013-07-11 12:02:00,56.5,52.3,29.65,WSW,248,12.5,12.5,86,0.00,,,0.00,VWS V14.01,2013-07-11 19:02:00,
2013-07-11 12:03:00,56.5,52.3,29.65,SW,225,8.7,8.7,86,0.00,,,0.00,VWS V14.01,2013-07-11 19:03:00,
2013-07-11 12:04:00,56.7,52.5,29.65,SSW,202,13.2,13.2,86,0.00,,,0.00,VWS V14.01,2013-07-11 19:04:00,
2013-07-11 12:05:00,56.5,52.3,29.65,WSW,248,15.9,15.9,86,0.00,,,0.00,VWS V14.01,2013-07-11 19:05:00,
2013-07-11 12:06:00,56.5,52.3,29.65,West,270,14.3,14.3,86,0.00,,,0.00,VWS V14.01,2013-07-11 19:06:00,
2013-07-11 12:08:00,56.5,52.3,29.65,West,270,14.3,14.3,86,0.00,,,0.00,VWS V14.01,2013-07-11 19:08:00,
2013-07-11 12:09:00,56.5,52.3,29.68,WSW,248,9.6,9.6,86,0.00,,,0.00,VWS V14.01,2013-07-11 19:09:00,
2013-07-11 12:10:00,56.5,52.3,29.68,WSW,248,6.0,6.0,86,0.00,,,0.00,VWS V14.01,2013-07-11 19:10:00,
2013-07-11 12:11:00,56.7,52.5,29.68,WSW,248,8.5,8.5,86,0.00,,,0.00,VWS V14.01,2013-07-11 19:11:00,
2013-07-11 12:12:00,56.8,52.7,29.68,WSW,248,10.3,10.3,86,0.00,,,0.00,VWS V14.01,2013-07-11 19:12:00,
2013-07-11 12:13:00,56.8,52.7,29.68,WSW,248,12.8,12.8,86,0.00,,,0.00,VWS V14.01,2013-07-11 19:13:00,
2013-07-11 12:14:00,57.0,52.9,29.68,WSW,248,8.5,8.5,86,0.00,,,0.00,VWS V14.01,2013-07-11 19:14:00,
2013-07-11 12:15:00,57.0,52.9,29.68,WSW,248,13.2,13.2,86,0.00,,,0.00,VWS V14.01,2013-07-11 19:15:00,
2013-07-11 12:16:00,56.8,52.4,29.68,WSW,248,12.5,12.5,85,0.00,,,0.00,VWS V14.01,2013-07-11 19:16:00,
2013-07-11 12:17:00,56.8,52.4,29.68,WSW,248,17.7,17.7,85,0.00,,,0.00,VWS V14.01,2013-07-11 19:17:00,
2013-07-11 12:18:00,56.8,52.4,29.68,WNW,292,15.2,15.2,85,0.00,,,0.00,VWS V14.01,2013-07-11 19:18:00,
2013-07-11 12:19:00,56.8,52.4,29.68,WSW,248,12.5,12.5,85,0.00,,,0.00,VWS V14.01,2013-07-11 19:19:00,
2013-07-11 12:20:00,56.8,52.4,29.68,SW,225,13.0,13.0,85,0.00,,,0.00,VWS V14.01,2013-07-11 19:20:00,
2013-07-11 12:21:00,56.8,52.4,29.68,WSW,248,12.8,12.8,85,0.00,,,0.00,VWS V14.01,2013-07-11 19:21:00,
2013-07-11 12:22:00,56.8,52.4,29.68,WSW,248,12.8,12.8,85,0.00,,,0.00,VWS V14.01,2013-07-11 19:22:00,
2013-07-11 12:23:00,57.0,52.2,29.68,WSW,248,8.7,8.7,84,0.00,,,0.00,VWS V14.01,2013-07-11 19:23:00,
2013-07-11 12:24:00,57.0,52.2,29.65,SW,225,14.8,14.8,84,0.00,,,0.00,VWS V14.01,2013-07-11 19:24:00,
2013-07-11 12:25:00,57.2,52.4,29.65,WSW,248,15.2,15.2,84,0.00,,,0.00,VWS V14.01,2013-07-11 19:25:00,
2013-07-11 12:26:00,57.2,52.1,29.65,West,270,11.2,11.2,83,0.00,,,0.00,VWS V14.01,2013-07-11 19:26:00,
2013-07-11 12:27:00,57.2,52.1,29.65,SSW,202,15.2,15.2,83,0.00,,,0.00,VWS V14.01,2013-07-11 19:27:00,
2013-07-11 12:28:00,57.2,52.1,29.65,West,270,18.8,18.8,83,0.00,,,0.00,VWS V14.01,2013-07-11 19:28:00,
2013-07-11 12:29:00,57.2,52.1,29.65,SW,225,13.0,13.0,83,0.00,,,0.00,VWS V14.01,2013-07-11 19:29:00,
2013-07-11 12:30:00,57.4,52.3,29.65,WSW,248,14.5,14.5,83,0.00,,,0.00,VWS V14.01,2013-07-11 19:30:00,
2013-07-11 12:31:00,57.2,51.8,29.65,SSW,202,13.6,13.6,82,0.00,,,0.00,VWS V14.01,2013-07-11 19:31:00,
2013-07-11 12:32:00,57.2,51.8,29.65,SSW,202,13.6,13.6,82,0.00,,,0.00,VWS V14.01,2013-07-11 19:32:00,
2013-07-11 12:33:00,57.2,51.8,29.65,WSW,248,11.4,11.4,82,0.00,,,0.00,VWS V14.01,2013-07-11 19:33:00,
2013-07-11 12:34:00,57.4,52.3,29.65,SW,225,13.2,13.2,83,0.00,,,0.00,VWS V14.01,2013-07-11 19:34:00,
2013-07-11 12:35:00,57.7,52.6,29.65,SW,225,14.5,14.5,83,0.00,,,0.00,VWS V14.01,2013-07-11 19:35:00,
2013-07-11 12:36:00,57.7,52.6,29.65,WSW,248,16.8,16.8,83,0.00,,,0.00,VWS V14.01,2013-07-11 19:36:00,
2013-07-11 12:37:00,57.6,52.1,29.65,SW,225,12.8,12.8,82,0.00,,,0.00,VWS V14.01,2013-07-11 19:37:00,
2013-07-11 12:38:00,57.6,52.1,29.65,West,270,12.5,12.5,82,0.00,,,0.00,VWS V14.01,2013-07-11 19:38:00,
2013-07-11 12:39:00,57.6,52.1,29.68,SW,225,19.5,19.5,82,0.00,,,0.00,VWS V14.01,2013-07-11 19:39:00,
2013-07-11 12:41:00,57.6,52.1,29.68,WSW,248,8.5,8.5,82,0.00,,,0.00,VWS V14.01,2013-07-11 19:41:00,
2013-07-11 12:42:00,57.6,52.4,29.68,WSW,248,14.1,14.1,83,0.00,,,0.00,VWS V14.01,2013-07-11 19:42:00,
2013-07-11 12:44:00,57.2,52.1,29.68,WNW,292,12.3,12.3,83,0.00,,,0.00,VWS V14.01,2013-07-11 19:44:00,
2013-07-11 12:45:00,57.2,52.1,29.68,WNW,292,12.3,12.3,83,0.00,,,0.00,VWS V14.01,2013-07-11 19:45:00,
2013-07-11 12:46:00,57.2,52.1,29.68,SW,225,8.5,8.5,83,0.00,,,0.00,VWS V14.01,2013-07-11 19:46:00,
2013-07-11 12:47:00,57.2,52.1,29.68,SW,225,8.5,8.5,83,0.00,,,0.00,VWS V14.01,2013-07-11 19:47:00,
2013-07-11 12:48:00,57.2,52.1,29.68,WSW,248,10.1,10.1,83,0.00,,,0.00,VWS V14.01,2013-07-11 19:48:00,
2013-07-11 12:49:00,57.2,52.1,29.68,West,270,14.8,14.8,83,0.00,,,0.00,VWS V14.01,2013-07-11 19:49:00,
2013-07-11 12:50:00,57.2,52.1,29.68,WSW,248,7.4,7.4,83,0.00,,,0.00,VWS V14.01,2013-07-11 19:50:00,
2013-07-11 12:51:00,57.6,52.8,29.68,WSW,248,10.5,10.5,84,0.00,,,0.00,VWS V14.01,2013-07-11 19:51:00,
2013-07-11 12:52:00,57.6,52.8,29.68,NNW,338,5.6,5.6,84,0.00,,,0.00,VWS V14.01,2013-07-11 19:52:00,
2013-07-11 12:53:00,57.9,53.1,29.68,WSW,248,4.3,4.3,84,0.00,,,0.00,VWS V14.01,2013-07-11 19:53:00,
2013-07-11 12:54:00,57.9,53.1,29.68,WSW,248,14.1,14.1,84,0.00,,,0.00,VWS V14.01,2013-07-11 19:54:00,
2013-07-11 12:56:00,57.9,52.8,29.68,WSW,248,9.8,9.8,83,0.00,,,0.00,VWS V14.01,2013-07-11 19:56:00,
2013-07-11 12:57:00,57.9,52.8,29.68,WSW,248,9.8,9.8,83,0.00,,,0.00,VWS V14.01,2013-07-11 19:57:00,
2013-07-11 12:58:00,58.1,52.6,29.68,SW,225,10.7,10.7,82,0.00,,,0.00,VWS V14.01,2013-07-11 19:58:00,
2013-07-11 12:59:00,58.1,52.6,29.68,SSW,202,11.9,11.9,82,0.00,,,0.00,VWS V14.01,2013-07-11 19:59:00,
2013-07-11 13:00:00,58.5,53.0,29.68,WSW,248,12.8,12.8,82,0.00,,,0.00,VWS V14.01,2013-07-11 20:00:00,
2013-07-11 13:01:00,58.1,52.3,29.68,WSW,248,12.3,12.3,81,0.00,,,0.00,VWS V14.01,2013-07-11 20:01:00,
2013-07-11 13:02:00,58.1,52.3,29.68,WSW,248,12.3,12.3,81,0.00,,,0.00,VWS V14.01,2013-07-11 20:02:00,
2013-07-11 13:03:00,58.1,52.3,29.68,WSW,248,16.8,16.8,81,0.00,,,0.00,VWS V14.01,2013-07-11 20:03:00,
2013-07-11 13:04:00,57.6,51.8,29.68,West,270,21.5,21.5,81,0.00,,,0.00,VWS V14.01,2013-07-11 20:04:00,
2013-07-11 13:05:00,57.2,51.8,29.68,SSW,202,17.0,17.0,82,0.00,,,0.00,VWS V14.01,2013-07-11 20:05:00,
2013-07-11 13:06:00,57.0,51.9,29.68,West,270,13.0,13.0,83,0.00,,,0.00,VWS V14.01,2013-07-11 20:06:00,
2013-07-11 13:07:00,57.0,51.9,29.68,WSW,248,15.2,15.2,83,0.00,,,0.00,VWS V14.01,2013-07-11 20:07:00,
2013-07-11 13:08:00,57.0,51.9,29.68,SSW,202,12.5,12.5,83,0.00,,,0.00,VWS V14.01,2013-07-11 20:08:00,
2013-07-11 13:09:00,57.2,52.1,29.68,SSW,202,16.6,16.6,83,0.00,,,0.00,VWS V14.01,2013-07-11 20:09:00,
2013-07-11 13:10:00,57.2,52.1,29.68,WSW,248,9.2,9.2,83,0.00,,,0.00,VWS V14.01,2013-07-11 20:10:00,
2013-07-11 13:11:00,57.2,52.1,29.68,WSW,248,13.0,13.0,83,0.00,,,0.00,VWS V14.01,2013-07-11 20:11:00,
2013-07-11 13:12:00,57.4,52.3,29.68,WSW,248,8.1,8.1,83,0.00,,,0.00,VWS V14.01,2013-07-11 20:12:00,
2013-07-11 13:13:00,57.4,52.3,29.68,SW,225,10.5,10.5,83,0.00,,,0.00,VWS V14.01,2013-07-11 20:13:00,
2013-07-11 13:14:00,57.4,52.3,29.68,WSW,248,19.0,19.0,83,0.00,,,0.00,VWS V14.01,2013-07-11 20:14:00,
2013-07-11 13:15:00,57.4,52.3,29.68,WSW,248,17.0,17.0,83,0.00,,,0.00,VWS V14.01,2013-07-11 20:15:00,
2013-07-11 13:16:00,57.2,52.1,29.68,SW,225,14.8,14.8,83,0.00,,,0.00,VWS V14.01,2013-07-11 20:16:00,
2013-07-11 13:17:00,57.4,52.6,29.68,WSW,248,10.5,10.5,84,0.00,,,0.00,VWS V14.01,2013-07-11 20:17:00,
2013-07-11 13:18:00,57.4,52.6,29.68,WSW,248,10.5,10.5,84,0.00,,,0.00,VWS V14.01,2013-07-11 20:18:00,
2013-07-11 13:19:00,57.4,52.6,29.68,SW,225,7.6,7.6,84,0.00,,,0.00,VWS V14.01,2013-07-11 20:19:00,
2013-07-11 13:20:00,57.6,52.8,29.68,WSW,248,5.8,5.8,84,0.00,,,0.00,VWS V14.01,2013-07-11 20:20:00,
2013-07-11 13:21:00,58.1,53.3,29.68,SSW,202,5.4,5.4,84,0.00,,,0.00,VWS V14.01,2013-07-11 20:21:00,
2013-07-11 13:22:00,58.1,53.3,29.68,WNW,292,15.7,15.7,84,0.00,,,0.00,VWS V14.01,2013-07-11 20:22:00,
2013-07-11 13:23:00,57.7,52.6,29.68,WSW,248,13.2,13.2,83,0.00,,,0.00,VWS V14.01,2013-07-11 20:23:00,
2013-07-11 13:24:00,57.7,52.6,29.65,WSW,248,9.2,9.2,83,0.00,,,0.00,VWS V14.01,2013-07-11 20:24:00,
2013-07-11 13:25:00,57.6,52.4,29.65,WSW,248,15.4,15.4,83,0.00,,,0.00,VWS V14.01,2013-07-11 20:25:00,
2013-07-11 13:26:00,57.6,52.4,29.65,SSW,202,10.5,10.5,83,0.00,,,0.00,VWS V14.01,2013-07-11 20:26:00,
2013-07-11 13:27:00,57.7,52.6,29.65,WSW,248,12.8,12.8,83,0.00,,,0.00,VWS V14.01,2013-07-11 20:27:00,
2013-07-11 13:28:00,57.7,52.6,29.65,WSW,248,8.5,8.5,83,0.00,,,0.00,VWS V14.01,2013-07-11 20:28:00,
2013-07-11 13:29:00,57.7,52.6,29.65,WSW,248,14.3,14.3,83,0.00,,,0.00,VWS V14.01,2013-07-11 20:29:00,
2013-07-11 13:30:00,57.9,52.5,29.65,SW,225,8.7,8.7,82,0.00,,,0.00,VWS V14.01,2013-07-11 20:30:00,
2013-07-11 13:31:00,57.9,52.5,29.65,WSW,248,5.8,5.8,82,0.00,,,0.00,VWS V14.01,2013-07-11 20:31:00,
2013-07-11 13:32:00,57.9,52.5,29.65,SSW,202,10.1,10.1,82,0.00,,,0.00,VWS V14.01,2013-07-11 20:32:00,
2013-07-11 13:33:00,57.9,52.5,29.65,WSW,248,21.9,21.9,82,0.00,,,0.00,VWS V14.01,2013-07-11 20:33:00,
2013-07-11 13:34:00,57.9,52.1,29.65,WSW,248,12.1,12.1,81,0.00,,,0.00,VWS V14.01,2013-07-11 20:34:00,
2013-07-11 13:35:00,57.9,52.1,29.65,SW,225,15.2,15.2,81,0.00,,,0.00,VWS V14.01,2013-07-11 20:35:00,
2013-07-11 13:36:00,57.9,52.1,29.65,NW,315,3.4,3.4,81,0.00,,,0.00,VWS V14.01,2013-07-11 20:36:00,
2013-07-11 13:37:00,57.9,52.1,29.65,West,270,11.0,11.0,81,0.00,,,0.00,VWS V14.01,2013-07-11 20:37:00,
2013-07-11 13:38:00,57.9,52.1,29.65,SW,225,14.3,14.3,81,0.00,,,0.00,VWS V14.01,2013-07-11 20:38:00,
2013-07-11 13:39:00,57.7,52.0,29.65,WSW,248,7.8,7.8,81,0.00,,,0.00,VWS V14.01,2013-07-11 20:39:00,
2013-07-11 13:40:00,57.7,52.0,29.65,West,270,14.8,14.8,81,0.00,,,0.00,VWS V14.01,2013-07-11 20:40:00,
2013-07-11 13:41:00,57.9,52.1,29.65,WSW,248,5.8,5.8,81,0.00,,,0.00,VWS V14.01,2013-07-11 20:41:00,
2013-07-11 13:42:00,58.3,52.5,29.65,SSW,202,13.0,13.0,81,0.00,,,0.00,VWS V14.01,2013-07-11 20:42:00,
2013-07-11 13:43:00,58.3,52.5,29.65,SSW,202,13.0,13.0,81,0.00,,,0.00,VWS V14.01,2013-07-11 20:43:00,
2013-07-11 13:44:00,58.1,52.0,29.65,SW,225,10.5,10.5,80,0.00,,,0.00,VWS V14.01,2013-07-11 20:44:00,
2013-07-11 13:45:00,58.1,52.0,29.65,WNW,292,10.3,10.3,80,0.00,,,0.00,VWS V14.01,2013-07-11 20:45:00,
2013-07-11 13:46:00,58.1,52.0,29.65,WNW,292,10.3,10.3,80,0.00,,,0.00,VWS V14.01,2013-07-11 20:46:00,
2013-07-11 13:47:00,58.3,51.8,29.65,SW,225,22.4,22.4,79,0.00,,,0.00,VWS V14.01,2013-07-11 20:47:00,
2013-07-11 13:48:00,58.3,51.8,29.65,SW,225,22.4,22.4,79,0.00,,,0.00,VWS V14.01,2013-07-11 20:48:00,
2013-07-11 13:49:00,58.3,51.8,29.65,WSW,248,17.2,17.2,79,0.00,,,0.00,VWS V14.01,2013-07-11 20:49:00,
2013-07-11 13:50:00,57.9,51.5,29.65,WSW,248,17.7,17.7,79,0.00,,,0.00,VWS V14.01,2013-07-11 20:50:00,
2013-07-11 13:51:00,57.9,51.5,29.65,SW,225,16.3,16.3,79,0.00,,,0.00,VWS V14.01,2013-07-11 20:51:00,
2013-07-11 13:52:00,57.7,52.0,29.65,SW,225,16.3,16.3,81,0.00,,,0.00,VWS V14.01,2013-07-11 20:52:00,
2013-07-11 13:53:00,57.7,52.0,29.65,WSW,248,7.6,7.6,81,0.00,,,0.00,VWS V14.01,2013-07-11 20:53:00,
2013-07-11 13:54:00,57.7,52.0,29.65,SW,225,11.0,11.0,81,0.00,,,0.00,VWS V14.01,2013-07-11 20:54:00,
2013-07-11 13:55:00,57.9,52.1,29.65,West,270,12.8,12.8,81,0.00,,,0.00,VWS V14.01,2013-07-11 20:55:00,
2013-07-11 13:56:00,57.9,52.1,29.65,WNW,292,18.8,18.8,81,0.00,,,0.00,VWS V14.01,2013-07-11 20:56:00,
2013-07-11 13:57:00,57.7,52.0,29.65,West,270,12.8,12.8,81,0.00,,,0.00,VWS V14.01,2013-07-11 20:57:00,
2013-07-11 13:58:00,57.7,52.0,29.65,West,270,12.8,12.8,81,0.00,,,0.00,VWS V14.01,2013-07-11 20:58:00,
2013-07-11 13:59:00,57.7,52.0,29.65,WSW,248,16.3,16.3,81,0.00,,,0.00,VWS V14.01,2013-07-11 20:59:00,
2013-07-11 14:00:00,57.9,52.5,29.65,WSW,248,10.1,10.1,82,0.00,,,0.00,VWS V14.01,2013-07-11 21:00:00,
2013-07-11 14:01:00,57.9,52.5,29.65,SW,225,15.2,15.2,82,0.00,,,0.00,VWS V14.01,2013-07-11 21:01:00,
2013-07-11 14:02:00,57.9,52.1,29.65,SW,225,19.5,19.5,81,0.00,,,0.00,VWS V14.01,2013-07-11 21:02:00,
2013-07-11 14:04:00,57.6,51.8,29.65,West,270,18.8,18.8,81,0.00,,,0.00,VWS V14.01,2013-07-11 21:04:00,
2013-07-11 14:05:00,57.2,51.8,29.65,SW,225,14.8,14.8,82,0.00,,,0.00,VWS V14.01,2013-07-11 21:05:00,
2013-07-11 14:06:00,57.2,51.8,29.65,West,270,13.0,13.0,82,0.00,,,0.00,VWS V14.01,2013-07-11 21:06:00,
2013-07-11 14:07:00,57.0,51.9,29.65,NW,315,9.4,9.4,83,0.00,,,0.00,VWS V14.01,2013-07-11 21:07:00,
2013-07-11 14:08:00,57.0,51.9,29.65,WSW,248,17.0,17.0,83,0.00,,,0.00,VWS V14.01,2013-07-11 21:08:00,
2013-07-11 14:09:00,57.2,52.1,29.65,West,270,8.7,8.7,83,0.00,,,0.00,VWS V14.01,2013-07-11 21:09:00,
2013-07-11 14:10:00,57.2,52.1,29.65,SW,225,10.3,10.3,83,0.00,,,0.00,VWS V14.01,2013-07-11 21:10:00,
2013-07-11 14:11:00,57.2,51.8,29.65,NW,315,15.4,15.4,82,0.00,,,0.00,VWS V14.01,2013-07-11 21:11:00,
2013-07-11 14:12:00,57.2,51.8,29.65,WSW,248,9.6,9.6,82,0.00,,,0.00,VWS V14.01,2013-07-11 21:12:00,
2013-07-11 14:13:00,57.0,51.9,29.65,SW,225,17.2,17.2,83,0.00,,,0.00,VWS V14.01,2013-07-11 21:13:00,
2013-07-11 14:14:00,57.0,51.9,29.65,SW,225,17.2,17.2,83,0.00,,,0.00,VWS V14.01,2013-07-11 21:14:00,
2013-07-11 14:15:00,57.0,51.9,29.65,West,270,17.7,17.7,83,0.00,,,0.00,VWS V14.01,2013-07-11 21:15:00,
2013-07-11 14:16:00,56.8,51.7,29.65,WSW,248,19.5,19.5,83,0.00,,,0.00,VWS V14.01,2013-07-11 21:16:00,
2013-07-11 14:17:00,56.8,51.7,29.65,WSW,248,19.7,19.7,83,0.00,,,0.00,VWS V14.01,2013-07-11 21:17:00,
2013-07-11 14:18:00,56.8,51.7,29.65,West,270,14.8,14.8,83,0.00,,,0.00,VWS V14.01,2013-07-11 21:18:00,
2013-07-11 14:19:00,56.8,51.7,29.65,SSW,202,21.5,21.5,83,0.00,,,0.00,VWS V14.01,2013-07-11 21:19:00,
2013-07-11 14:20:00,56.8,51.7,29.65,West,270,15.2,15.2,83,0.00,,,0.00,VWS V14.01,2013-07-11 21:20:00,
2013-07-11 14:21:00,56.8,52.1,29.65,WSW,248,14.3,14.3,84,0.00,,,0.00,VWS V14.01,2013-07-11 21:21:00,
2013-07-11 14:22:00,56.8,52.1,29.65,West,270,15.9,15.9,84,0.00,,,0.00,VWS V14.01,2013-07-11 21:22:00,
2013-07-11 14:23:00,56.8,51.7,29.65,West,270,15.9,15.9,83,0.00,,,0.00,VWS V14.01,2013-07-11 21:23:00,
2013-07-11 14:25:00,56.8,52.1,29.65,SSW,202,13.0,13.0,84,0.00,,,0.00,VWS V14.01,2013-07-11 21:25:00,
2013-07-11 14:26:00,56.8,52.1,29.65,West,270,13.6,13.6,84,0.00,,,0.00,VWS V14.01,2013-07-11 21:26:00,
2013-07-11 14:27:00,56.8,52.1,29.65,WSW,248,15.2,15.2,84,0.00,,,0.00,VWS V14.01,2013-07-11 21:27:00,
2013-07-11 14:28:00,56.8,52.1,29.65,WSW,248,12.8,12.8,84,0.00,,,0.00,VWS V14.01,2013-07-11 21:28:00,
2013-07-11 14:31:00,56.8,52.1,29.65,WSW,248,16.1,16.1,84,0.00,,,0.00,VWS V14.01,2013-07-11 21:31:00,
2013-07-11 14:32:00,56.7,51.9,29.65,West,270,15.9,15.9,84,0.00,,,0.00,VWS V14.01,2013-07-11 21:32:00,
2013-07-11 14:33:00,56.7,51.9,29.65,SSW,202,10.3,10.3,84,0.00,,,0.00,VWS V14.01,2013-07-11 21:33:00,
2013-07-11 14:35:00,56.8,52.4,29.65,WSW,248,17.2,17.2,85,0.00,,,0.00,VWS V14.01,2013-07-11 21:35:00,
2013-07-11 14:36:00,56.8,52.1,29.65,WSW,248,20.4,20.4,84,0.00,,,0.00,VWS V14.01,2013-07-11 21:36:00,
2013-07-11 14:37:00,56.7,52.2,29.65,WSW,248,20.4,20.4,85,0.00,,,0.00,VWS V14.01,2013-07-11 21:37:00,
2013-07-11 14:38:00,56.7,52.2,29.65,WSW,248,8.5,8.5,85,0.00,,,0.00,VWS V14.01,2013-07-11 21:38:00,
2013-07-11 14:39:00,56.8,52.4,29.65,WSW,248,13.2,13.2,85,0.00,,,0.00,VWS V14.01,2013-07-11 21:39:00,
2013-07-11 14:40:00,56.8,52.4,29.65,WSW,248,16.1,16.1,85,0.00,,,0.00,VWS V14.01,2013-07-11 21:40:00,
2013-07-11 14:43:00,56.8,52.4,29.65,WSW,248,10.5,10.5,85,0.00,,,0.00,VWS V14.01,2013-07-11 21:43:00,
2013-07-11 14:45:00,56.8,52.4,29.65,WSW,248,15.4,15.4,85,0.00,,,0.00,VWS V14.01,2013-07-11 21:45:00,
2013-07-11 14:46:00,56.8,52.4,29.65,West,270,10.7,10.7,85,0.00,,,0.00,VWS V14.01,2013-07-11 21:46:00,
2013-07-11 14:47:00,56.8,52.4,29.65,WSW,248,10.3,10.3,85,0.00,,,0.00,VWS V14.01,2013-07-11 21:47:00,
2013-07-11 14:48:00,56.8,52.4,29.65,WSW,248,20.8,20.8,85,0.00,,,0.00,VWS V14.01,2013-07-11 21:48:00,
2013-07-11 14:50:00,56.8,52.1,29.65,WSW,248,12.5,12.5,84,0.00,,,0.00,VWS V14.01,2013-07-11 21:50:00,
2013-07-11 14:52:00,56.8,52.1,29.65,SW,225,7.6,7.6,84,0.00,,,0.00,VWS V14.01,2013-07-11 21:52:00,
2013-07-11 14:53:00,57.2,52.4,29.65,WSW,248,13.6,13.6,84,0.00,,,0.00,VWS V14.01,2013-07-11 21:53:00,
2013-07-11 14:54:00,57.0,52.2,29.65,WSW,248,9.4,9.4,84,0.00,,,0.00,VWS V14.01,2013-07-11 21:54:00,
2013-07-11 14:55:00,57.0,52.2,29.65,WSW,248,8.5,8.5,84,0.00,,,0.00,VWS V14.01,2013-07-11 21:55:00,
2013-07-11 14:56:00,57.2,52.1,29.65,WSW,248,13.0,13.0,83,0.00,,,0.00,VWS V14.01,2013-07-11 21:56:00,
2013-07-11 14:57:00,57.2,52.1,29.65,West,270,16.8,16.8,83,0.00,,,0.00,VWS V14.01,2013-07-11 21:57:00,
2013-07-11 14:58:00,57.2,52.1,29.65,West,270,13.9,13.9,83,0.00,,,0.00,VWS V14.01,2013-07-11 21:58:00,
2013-07-11 15:00:00,57.0,51.9,29.65,West,270,16.1,16.1,83,0.00,,,0.00,VWS V14.01,2013-07-11 22:00:00,
2013-07-11 15:01:00,57.2,52.1,29.65,West,270,16.1,16.1,83,0.00,,,0.00,VWS V14.01,2013-07-11 22:01:00,
2013-07-11 15:02:00,57.2,52.1,29.65,SW,225,19.9,19.9,83,0.00,,,0.00,VWS V14.01,2013-07-11 22:02:00,
2013-07-11 15:03:00,57.0,51.9,29.65,NW,315,19.2,19.2,83,0.00,,,0.00,VWS V14.01,2013-07-11 22:03:00,
2013-07-11 15:04:00,57.0,51.9,29.65,WNW,292,20.8,20.8,83,0.00,,,0.00,VWS V14.01,2013-07-11 22:04:00,
2013-07-11 15:07:00,56.8,52.1,29.65,West,270,10.3,10.3,84,0.00,,,0.00,VWS V14.01,2013-07-11 22:07:00,
2013-07-11 15:08:00,57.0,52.2,29.65,West,270,15.2,15.2,84,0.00,,,0.00,VWS V14.01,2013-07-11 22:08:00,
2013-07-11 15:09:00,57.0,52.2,29.65,West,270,15.2,15.2,84,0.00,,,0.00,VWS V14.01,2013-07-11 22:09:00,
2013-07-11 15:10:00,57.2,52.1,29.65,West,270,12.5,12.5,83,0.00,,,0.00,VWS V14.01,2013-07-11 22:10:00,
2013-07-11 15:11:00,57.2,52.1,29.65,SW,225,6.5,6.5,83,0.00,,,0.00,VWS V14.01,2013-07-11 22:11:00,
2013-07-11 15:12:00,57.2,52.1,29.65,WSW,248,13.9,13.9,83,0.00,,,0.00,VWS V14.01,2013-07-11 22:12:00,
2013-07-11 15:13:00,57.9,52.8,29.65,WSW,248,5.8,5.8,83,0.00,,,0.00,VWS V14.01,2013-07-11 22:13:00,
2013-07-11 15:14:00,57.9,52.8,29.65,WSW,248,9.6,9.6,83,0.00,,,0.00,VWS V14.01,2013-07-11 22:14:00,
2013-07-11 15:15:00,58.1,52.6,29.65,SW,225,12.3,12.3,82,0.00,,,0.00,VWS V14.01,2013-07-11 22:15:00,
2013-07-11 15:16:00,58.1,52.6,29.65,WNW,292,14.8,14.8,82,0.00,,,0.00,VWS V14.01,2013-07-11 22:16:00,
2013-07-11 15:17:00,58.1,52.3,29.65,WSW,248,8.1,8.1,81,0.00,,,0.00,VWS V14.01,2013-07-11 22:17:00,
2013-07-11 15:18:00,57.9,52.1,29.65,NNW,338,19.7,19.7,81,0.00,,,0.00,VWS V14.01,2013-07-11 22:18:00,
2013-07-11 15:19:00,57.9,52.1,29.65,SW,225,10.1,10.1,81,0.00,,,0.00,VWS V14.01,2013-07-11 22:19:00,
2013-07-11 15:22:00,58.1,52.3,29.65,WNW,292,11.0,11.0,81,0.00,,,0.00,VWS V14.01,2013-07-11 22:22:00,
2013-07-11 15:23:00,57.7,52.0,29.65,WSW,248,12.8,12.8,81,0.00,,,0.00,VWS V14.01,2013-07-11 22:23:00,
2013-07-11 15:24:00,57.7,52.0,29.65,WSW,248,12.8,12.8,81,0.00,,,0.00,VWS V14.01,2013-07-11 22:24:00,
2013-07-11 15:25:00,57.7,52.0,29.65,WNW,292,15.4,15.4,81,0.00,,,0.00,VWS V14.01,2013-07-11 22:25:00,
2013-07-11 15:26:00,57.6,51.8,29.65,SW,225,17.7,17.7,81,0.00,,,0.00,VWS V14.01,2013-07-11 22:26:00,
2013-07-11 15:27:00,57.6,51.8,29.65,WSW,248,19.7,19.7,81,0.00,,,0.00,VWS V14.01,2013-07-11 22:27:00,
2013-07-11 15:28:00,57.6,51.8,29.65,WSW,248,12.3,12.3,81,0.00,,,0.00,VWS V14.01,2013-07-11 22:28:00,
2013-07-11 15:29:00,57.7,52.0,29.65,WSW,248,15.4,15.4,81,0.00,,,0.00,VWS V14.01,2013-07-11 22:29:00,
2013-07-11 15:30:00,57.7,52.0,29.65,SSW,202,15.4,15.4,81,0.00,,,0.00,VWS V14.01,2013-07-11 22:30:00,
2013-07-11 15:31:00,57.6,51.8,29.65,West,270,10.3,10.3,81,0.00,,,0.00,VWS V14.01,2013-07-11 22:31:00,
2013-07-11 15:32:00,57.6,51.8,29.65,WSW,248,16.6,16.6,81,0.00,,,0.00,VWS V14.01,2013-07-11 22:32:00,
2013-07-11 15:33:00,57.6,51.8,29.65,WSW,248,10.5,10.5,81,0.00,,,0.00,VWS V14.01,2013-07-11 22:33:00,
2013-07-11 15:34:00,57.6,51.8,29.65,WSW,248,10.5,10.5,81,0.00,,,0.00,VWS V14.01,2013-07-11 22:34:00,
2013-07-11 15:35:00,57.6,51.8,29.65,WSW,248,8.1,8.1,81,0.00,,,0.00,VWS V14.01,2013-07-11 22:35:00,
2013-07-11 15:37:00,57.7,52.0,29.65,SSW,202,11.0,11.0,81,0.00,,,0.00,VWS V14.01,2013-07-11 22:37:00,
2013-07-11 15:38:00,57.7,52.0,29.62,WSW,248,17.0,17.0,81,0.00,,,0.00,VWS V14.01,2013-07-11 22:38:00,
2013-07-11 15:40:00,57.6,51.4,29.62,WSW,248,19.7,19.7,80,0.00,,,0.00,VWS V14.01,2013-07-11 22:40:00,
2013-07-11 15:42:00,57.2,51.4,29.62,SW,225,12.5,12.5,81,0.00,,,0.00,VWS V14.01,2013-07-11 22:42:00,
2013-07-11 15:43:00,57.4,51.9,29.62,WSW,248,13.0,13.0,82,0.00,,,0.00,VWS V14.01,2013-07-11 22:43:00,
2013-07-11 15:44:00,57.4,51.9,29.62,WSW,248,16.6,16.6,82,0.00,,,0.00,VWS V14.01,2013-07-11 22:44:00,
2013-07-11 15:45:00,57.6,52.1,29.62,WNW,292,21.0,21.0,82,0.00,,,0.00,VWS V14.01,2013-07-11 22:45:00,
2013-07-11 15:46:00,57.6,52.1,29.62,West,270,19.9,19.9,82,0.00,,,0.00,VWS V14.01,2013-07-11 22:46:00,
2013-07-11 16:43:00,57.6,52.1,29.62,WSW,248,10.7,10.7,82,0.00,,,0.00,VWS V14.01,2013-07-11 23:43:00,
2013-07-11 16:44:00,57.6,52.1,29.62,WSW,248,15.9,15.9,82,0.00,,,0.00,VWS V14.01,2013-07-11 23:44:00,
2013-07-11 16:45:00,57.7,52.3,29.62,West,270,6.3,6.3,82,0.00,,,0.00,VWS V14.01,2013-07-11 23:45:00,
2013-07-11 16:46:00,57.7,52.3,29.62,WSW,248,12.3,12.3,82,0.00,,,0.00,VWS V14.01,2013-07-11 23:46:00,
2013-07-11 16:47:00,57.6,52.1,29.62,SSW,202,17.0,17.0,82,0.00,,,0.00,VWS V14.01,2013-07-11 23:47:00,
2013-07-11 16:48:00,57.6,52.1,29.62,WSW,248,9.6,9.6,82,0.00,,,0.00,VWS V14.01,2013-07-11 23:48:00,
2013-07-11 16:49:00,57.4,51.9,29.62,WSW,248,10.5,10.5,82,0.00,,,0.00,VWS V14.01,2013-07-11 23:49:00,
2013-07-11 16:50:00,57.4,51.9,29.62,NW,315,14.1,14.1,82,0.00,,,0.00,VWS V14.01,2013-07-11 23:50:00,
2013-07-11 16:51:00,57.4,51.9,29.62,West,270,17.7,17.7,82,0.00,,,0.00,VWS V14.01,2013-07-11 23:51:00,
2013-07-11 16:52:00,57.2,51.8,29.62,WSW,248,15.4,15.4,82,0.00,,,0.00,VWS V14.01,2013-07-11 23:52:00,
2013-07-11 16:53:00,57.2,51.8,29.62,NNW,338,10.5,10.5,82,0.00,,,0.00,VWS V14.01,2013-07-11 23:53:00,
2013-07-11 16:54:00,57.2,51.8,29.59,WSW,248,15.2,15.2,82,0.00,,,0.00,VWS V14.01,2013-07-11 23:54:00,
2013-07-11 16:58:00,57.2,51.8,29.59,WSW,248,26.2,26.2,82,0.00,,,0.00,VWS V14.01,2013-07-11 23:58:00,
2013-07-11 17:03:00,56.7,51.6,29.59,SW,225,22.8,22.8,83,0.00,,,0.00,VWS V14.01,2013-07-12 00:03:00,
2013-07-11 17:08:00,56.3,51.5,29.59,WSW,248,22.8,22.8,84,0.00,,,0.00,VWS V14.01,2013-07-12 00:08:00,
2013-07-11 17:13:00,56.3,51.5,29.59,SW,225,16.1,16.1,84,0.00,,,0.00,VWS V14.01,2013-07-12 00:13:00,
2013-07-11 17:18:00,56.1,51.4,29.59,WNW,292,13.4,13.4,84,0.00,,,0.00,VWS V14.01,2013-07-12 00:18:00,
2013-07-11 17:23:00,56.3,51.9,29.59,WSW,248,19.2,19.2,85,0.00,,,0.00,VWS V14.01,2013-07-12 00:23:00,
2013-07-11 17:28:00,56.3,51.5,29.59,SW,225,10.1,10.1,84,0.00,,,0.00,VWS V14.01,2013-07-12 00:28:00,
2013-07-11 17:34:00,56.5,51.7,29.59,West,270,20.1,20.1,84,0.00,,,0.00,VWS V14.01,2013-07-12 00:34:00,
2013-07-11 17:39:00,55.9,51.5,29.59,SSW,202,12.3,12.3,85,0.00,,,0.00,VWS V14.01,2013-07-12 00:39:00,
2013-07-11 17:44:00,55.9,51.5,29.59,SW,225,17.2,17.2,85,0.00,,,0.00,VWS V14.01,2013-07-12 00:44:00,
2013-07-11 17:49:00,55.9,51.8,29.59,West,270,14.8,14.8,86,0.00,,,0.00,VWS V14.01,2013-07-12 00:49:00,
2013-07-11 17:54:00,55.9,51.8,29.59,SSE,158,11.9,11.9,86,0.00,,,0.00,VWS V14.01,2013-07-12 00:54:00,
2013-07-11 17:59:00,55.8,51.6,29.59,WSW,248,14.8,14.8,86,0.00,,,0.00,VWS V14.01,2013-07-12 00:59:00,
2013-07-11 18:04:00,55.9,51.8,29.59,WSW,248,16.8,16.8,86,0.00,,,0.00,VWS V14.01,2013-07-12 01:04:00,
2013-07-11 18:09:00,55.9,51.8,29.59,WNW,292,16.8,16.8,86,0.00,,,0.00,VWS V14.01,2013-07-12 01:09:00,
2013-07-11 18:14:00,55.8,51.6,29.59,West,270,23.5,23.5,86,0.00,,,0.00,VWS V14.01,2013-07-12 01:14:00,
2013-07-11 18:20:00,55.8,51.6,29.59,SW,225,19.5,19.5,86,0.00,,,0.00,VWS V14.01,2013-07-12 01:20:00,
2013-07-11 18:25:00,55.6,51.8,29.59,WSW,248,14.5,14.5,87,0.00,,,0.00,VWS V14.01,2013-07-12 01:25:00,
2013-07-11 18:30:00,55.6,51.8,29.59,SSW,202,11.2,11.2,87,0.00,,,0.00,VWS V14.01,2013-07-12 01:30:00,
2013-07-11 18:35:00,55.6,52.1,29.59,SW,225,19.5,19.5,88,0.00,,,0.00,VWS V14.01,2013-07-12 01:35:00,
2013-07-11 18:40:00,55.6,52.1,29.59,West,270,6.5,6.5,88,0.00,,,0.00,VWS V14.01,2013-07-12 01:40:00,
2013-07-11 18:45:00,55.4,51.9,29.59,WSW,248,14.1,14.1,88,0.00,,,0.00,VWS V14.01,2013-07-12 01:45:00,
2013-07-11 18:51:00,55.2,52.0,29.59,SW,225,17.5,17.5,89,0.00,,,0.00,VWS V14.01,2013-07-12 01:51:00,
2013-07-11 18:56:00,55.2,52.0,29.59,WNW,292,15.4,15.4,89,0.00,,,0.00,VWS V14.01,2013-07-12 01:56:00,
2013-07-11 19:01:00,55.2,52.3,29.59,SW,225,15.4,15.4,90,0.00,,,0.00,VWS V14.01,2013-07-12 02:01:00,
2013-07-11 19:06:00,55.0,52.2,29.59,SW,225,4.3,4.3,90,0.00,,,0.00,VWS V14.01,2013-07-12 02:06:00,
2013-07-11 19:11:00,55.0,52.2,29.59,West,270,10.5,10.5,90,0.00,,,0.00,VWS V14.01,2013-07-12 02:11:00,
2013-07-11 19:16:00,54.9,52.0,29.59,WSW,248,22.2,22.2,90,0.00,,,0.00,VWS V14.01,2013-07-12 02:16:00,
2013-07-11 19:21:00,54.9,52.3,29.59,West,270,8.7,8.7,91,0.00,,,0.00,VWS V14.01,2013-07-12 02:21:00,
2013-07-11 19:26:00,54.7,52.1,29.59,South,180,10.7,10.7,91,0.00,,,0.00,VWS V14.01,2013-07-12 02:26:00,
2013-07-11 19:31:00,54.5,52.2,29.59,SW,225,12.1,12.1,92,0.00,,,0.00,VWS V14.01,2013-07-12 02:31:00,
2013-07-11 19:36:00,54.5,52.2,29.59,WNW,292,2.5,2.5,92,0.00,,,0.00,VWS V14.01,2013-07-12 02:36:00,
2013-07-11 19:41:00,54.5,52.2,29.59,NW,315,4.9,4.9,92,0.00,,,0.00,VWS V14.01,2013-07-12 02:41:00,
2013-07-11 19:46:00,54.5,52.2,29.59,WSW,248,7.6,7.6,92,0.00,,,0.00,VWS V14.01,2013-07-12 02:46:00,
2013-07-11 19:51:00,54.5,52.2,29.59,WSW,248,7.6,7.6,92,0.00,,,0.00,VWS V14.01,2013-07-12 02:51:00,
2013-07-11 19:57:00,54.5,52.2,29.62,South,180,4.9,4.9,92,0.00,,,0.00,VWS V14.01,2013-07-12 02:57:00,
2013-07-11 20:02:00,54.1,52.2,29.62,WSW,248,13.9,13.9,93,0.00,,,0.00,VWS V14.01,2013-07-12 03:02:00,
2013-07-11 20:07:00,54.1,52.2,29.62,SSW,202,7.8,7.8,93,0.00,,,0.00,VWS V14.01,2013-07-12 03:07:00,
2013-07-11 20:12:00,54.1,52.2,29.62,WNW,292,13.2,13.2,93,0.00,,,0.00,VWS V14.01,2013-07-12 03:12:00,
2013-07-11 20:17:00,54.1,52.2,29.62,SW,225,18.6,18.6,93,0.00,,,0.00,VWS V14.01,2013-07-12 03:17:00,
2013-07-11 20:22:00,54.1,52.2,29.62,WSW,248,13.0,13.0,93,0.00,,,0.00,VWS V14.01,2013-07-12 03:22:00,
2013-07-11 20:27:00,54.1,52.2,29.62,WNW,292,6.3,6.3,93,0.00,,,0.00,VWS V14.01,2013-07-12 03:27:00,
2013-07-11 20:32:00,54.1,52.2,29.62,SSW,202,5.6,5.6,93,0.00,,,0.00,VWS V14.01,2013-07-12 03:32:00,
2013-07-11 20:37:00,54.3,52.3,29.62,SSW,202,7.8,7.8,93,0.00,,,0.00,VWS V14.01,2013-07-12 03:37:00,
2013-07-11 20:42:00,54.3,52.3,29.62,SW,225,3.8,3.8,93,0.00,,,0.00,VWS V14.01,2013-07-12 03:42:00,
2013-07-11 20:47:00,54.3,52.3,29.62,SSW,202,16.3,16.3,93,0.00,,,0.00,VWS V14.01,2013-07-12 03:47:00,
2013-07-11 20:52:00,54.1,52.2,29.62,West,270,13.0,13.0,93,0.00,,,0.00,VWS V14.01,2013-07-12 03:52:00,
2013-07-11 20:57:00,54.1,52.2,29.62,SW,225,6.3,6.3,93,0.00,,,0.00,VWS V14.01,2013-07-12 03:57:00,
2013-07-11 21:01:00,54.1,52.2,29.62,WSW,248,13.2,13.2,93,0.00,,,0.00,VWS V14.01,2013-07-12 04:01:00,
2013-07-11 21:06:00,54.1,52.2,29.62,NW,315,6.5,6.5,93,0.00,,,0.00,VWS V14.01,2013-07-12 04:06:00,
2013-07-11 21:11:00,54.3,52.3,29.65,SSW,202,11.0,11.0,93,0.00,,,0.00,VWS V14.01,2013-07-12 04:11:00,
2013-07-11 21:16:00,54.3,52.3,29.65,SSW,202,5.6,5.6,93,0.00,,,0.00,VWS V14.01,2013-07-12 04:16:00,
2013-07-11 21:21:00,54.3,52.3,29.65,SW,225,2.7,2.7,93,0.00,,,0.00,VWS V14.01,2013-07-12 04:21:00,
2013-07-11 21:26:00,54.3,52.3,29.65,West,270,3.4,3.4,93,0.00,,,0.00,VWS V14.01,2013-07-12 04:26:00,
2013-07-11 21:31:00,54.3,52.3,29.65,WSW,248,11.2,11.2,93,0.00,,,0.00,VWS V14.01,2013-07-12 04:31:00,
2013-07-11 21:36:00,54.3,52.3,29.65,West,270,2.9,2.9,93,0.00,,,0.00,VWS V14.01,2013-07-12 04:36:00,
2013-07-11 21:41:00,54.3,52.3,29.65,West,270,3.6,3.6,93,0.00,,,0.00,VWS V14.01,2013-07-12 04:41:00,
2013-07-11 21:46:00,54.3,52.3,29.65,WSW,248,10.5,10.5,93,0.00,,,0.00,VWS V14.01,2013-07-12 04:46:00,
2013-07-11 21:51:00,54.3,52.3,29.65,West,270,9.6,9.6,93,0.00,,,0.00,VWS V14.01,2013-07-12 04:51:00,
2013-07-11 21:56:00,54.3,52.3,29.65,WSW,248,8.5,8.5,93,0.00,,,0.00,VWS V14.01,2013-07-12 04:56:00,
2013-07-11 22:01:00,54.3,52.0,29.65,SSW,202,8.7,8.7,92,0.00,,,0.00,VWS V14.01,2013-07-12 05:01:00,
2013-07-11 22:06:00,54.3,52.0,29.65,West,270,7.4,7.4,92,0.00,,,0.00,VWS V14.01,2013-07-12 05:06:00,
2013-07-11 22:11:00,54.3,52.0,29.65,SW,225,7.8,7.8,92,0.00,,,0.00,VWS V14.01,2013-07-12 05:11:00,
2013-07-11 22:16:00,54.3,52.0,29.65,WSW,248,6.7,6.7,92,0.00,,,0.00,VWS V14.01,2013-07-12 05:16:00,
2013-07-11 22:21:00,54.1,51.6,29.65,WSW,248,14.1,14.1,91,0.00,,,0.00,VWS V14.01,2013-07-12 05:21:00,
2013-07-11 22:26:00,54.0,51.4,29.65,West,270,2.5,2.5,91,0.00,,,0.00,VWS V14.01,2013-07-12 05:26:00,
2013-07-11 22:31:00,54.1,51.6,29.65,WNW,292,9.8,9.8,91,0.00,,,0.00,VWS V14.01,2013-07-12 05:31:00,
2013-07-11 22:36:00,54.1,51.9,29.65,West,270,7.8,7.8,92,0.00,,,0.00,VWS V14.01,2013-07-12 05:36:00,
2013-07-11 22:41:00,54.3,52.0,29.65,SW,225,8.1,8.1,92,0.00,,,0.00,VWS V14.01,2013-07-12 05:41:00,
2013-07-11 22:46:00,54.3,52.0,29.65,WSW,248,5.4,5.4,92,0.00,,,0.00,VWS V14.01,2013-07-12 05:46:00,
2013-07-11 22:51:00,54.3,52.0,29.65,WSW,248,5.6,5.6,92,0.00,,,0.00,VWS V14.01,2013-07-12 05:51:00,
2013-07-11 22:56:00,54.3,51.8,29.65,WSW,248,7.4,7.4,91,0.00,,,0.00,VWS V14.01,2013-07-12 05:56:00,
2013-07-11 23:01:00,54.5,51.9,29.65,SW,225,13.0,13.0,91,0.00,,,0.00,VWS V14.01,2013-07-12 06:01:00,
2013-07-11 23:06:00,54.5,51.9,29.65,WSW,248,12.8,12.8,91,0.00,,,0.00,VWS V14.01,2013-07-12 06:06:00,
2013-07-11 23:11:00,54.5,51.9,29.65,SW,225,9.6,9.6,91,0.00,,,0.00,VWS V14.01,2013-07-12 06:11:00,
2013-07-11 23:16:00,54.7,52.1,29.65,SW,225,10.7,10.7,91,0.00,,,0.00,VWS V14.01,2013-07-12 06:16:00,
2013-07-11 23:21:00,54.7,52.1,29.65,WSW,248,9.8,9.8,91,0.00,,,0.00,VWS V14.01,2013-07-12 06:21:00,
2013-07-11 23:26:00,54.9,52.3,29.65,SW,225,8.5,8.5,91,0.00,,,0.00,VWS V14.01,2013-07-12 06:26:00,
2013-07-11 23:31:00,54.9,52.0,29.65,SSW,202,15.2,15.2,90,0.00,,,0.00,VWS V14.01,2013-07-12 06:31:00,
2013-07-11 23:35:00,54.9,52.0,29.65,WSW,248,12.3,12.3,90,0.00,,,0.00,VWS V14.01,2013-07-12 06:35:00,
2013-07-11 23:40:00,55.0,52.2,29.65,SSW,202,9.8,9.8,90,0.00,,,0.00,VWS V14.01,2013-07-12 06:40:00,
2013-07-11 23:45:00,55.0,51.9,29.65,SSW,202,9.0,9.0,89,0.00,,,0.00,VWS V14.01,2013-07-12 06:45:00,
2013-07-11 23:50:00,54.9,51.7,29.65,SW,225,13.2,13.2,89,0.00,,,0.00,VWS V14.01,2013-07-12 06:50:00,
2013-07-11 23:55:00,54.9,51.7,29.65,WSW,248,12.8,12.8,89,0.00,,,0.00,VWS V14.01,2013-07-12 06:55:00,